PTI737 KHOU-PANC
Flight info
| Callsign | PTI737 |
|---|---|
| Flight time | 7h 8m |
| Altitude | 38000 |
| Route | STYCK8 STYCK SPS J168 LAA LAR BOY HLN YXC YXS DUXAR SSR J541 YAK J501 JOH PTERS3 |
| Aircraft | B737/M-SDE2E3FGHIRWXY/LB1 |
Departure
| Time | 2026-05-07 03:46 |
|---|---|
| Airport | William P. Hobby Airport (KHOU) |
Arrival
| Time | 2026-05-07 10:54 |
|---|---|
| Airport | Ted Stevens Anchorage International Airport (PANC) |
| Time | Latitude | Longitude | Altitude | Speed | Heading |
|---|---|---|---|---|---|
| 2026-05-07 03:38 | 29.65681 | -95.27114 | 47 ft | 0 kts | 90° |
| 2026-05-07 03:44 | 29.65638 | -95.27106 | 51 ft | 20 kts | 199° |
| 2026-05-07 03:45 | 29.65495 | -95.27183 | 51 ft | 18 kts | 168° |
| 2026-05-07 03:45 | 29.65484 | -95.27027 | 51 ft | 33 kts | 91° |
| 2026-05-07 03:45 | 29.65348 | -95.26944 | 49 ft | 33 kts | 221° |
| 2026-05-07 03:45 | 29.64959 | -95.27368 | 48 ft | 120 kts | 223° |
| 2026-05-07 03:46 | 29.64188 | -95.28232 | 216 ft | 178 kts | 223° |
| 2026-05-07 03:46 | 29.63287 | -95.29206 | 1207 ft | 183 kts | 225° |
| 2026-05-07 03:46 | 29.62268 | -95.30269 | 1866 ft | 213 kts | 223° |
| 2026-05-07 03:46 | 29.60898 | -95.31187 | 2241 ft | 241 kts | 200° |
| 2026-05-07 03:47 | 29.59297 | -95.31789 | 3028 ft | 247 kts | 199° |
| 2026-05-07 03:47 | 29.57544 | -95.32071 | 3597 ft | 265 kts | 171° |
| 2026-05-07 03:47 | 29.55880 | -95.31142 | 4531 ft | 273 kts | 137° |
| 2026-05-07 03:47 | 29.54903 | -95.29278 | 5506 ft | 280 kts | 105° |
| 2026-05-07 03:48 | 29.54922 | -95.27045 | 6414 ft | 285 kts | 72° |
| 2026-05-07 03:48 | 29.55960 | -95.25112 | 7245 ft | 290 kts | 42° |
| 2026-05-07 03:48 | 29.57650 | -95.23830 | 7968 ft | 296 kts | 20° |
| 2026-05-07 03:48 | 29.59563 | -95.22877 | 8757 ft | 303 kts | 21° |
| 2026-05-07 03:49 | 29.61502 | -95.21855 | 9547 ft | 310 kts | 21° |
| 2026-05-07 03:49 | 29.63489 | -95.20815 | 10266 ft | 318 kts | 20° |
| 2026-05-07 03:49 | 29.65554 | -95.19744 | 10778 ft | 332 kts | 20° |
| 2026-05-07 03:49 | 29.67692 | -95.18688 | 11451 ft | 336 kts | 12° |
| 2026-05-07 03:50 | 29.69973 | -95.18405 | 12186 ft | 327 kts | 347° |
| 2026-05-07 03:50 | 29.72129 | -95.19076 | 13001 ft | 319 kts | 329° |
| 2026-05-07 03:50 | 29.74137 | -95.20162 | 13806 ft | 321 kts | 327° |
| 2026-05-07 03:50 | 29.76142 | -95.21319 | 14500 ft | 324 kts | 326° |
| 2026-05-07 03:51 | 29.78163 | -95.22498 | 15228 ft | 327 kts | 325° |
| 2026-05-07 03:51 | 29.80208 | -95.23685 | 15966 ft | 331 kts | 325° |
| 2026-05-07 03:51 | 29.82250 | -95.24862 | 16686 ft | 334 kts | 325° |
| 2026-05-07 03:51 | 29.84372 | -95.26076 | 17449 ft | 338 kts | 325° |
| 2026-05-07 03:52 | 29.86467 | -95.27269 | 18176 ft | 342 kts | 324° |
| 2026-05-07 03:52 | 29.88608 | -95.28485 | 18821 ft | 345 kts | 324° |
| 2026-05-07 03:52 | 29.90772 | -95.29713 | 19475 ft | 348 kts | 324° |
| 2026-05-07 03:52 | 29.92960 | -95.30954 | 20133 ft | 352 kts | 324° |
| 2026-05-07 03:53 | 29.95167 | -95.32206 | 20789 ft | 355 kts | 324° |
| 2026-05-07 03:53 | 29.97395 | -95.33471 | 21425 ft | 359 kts | 324° |
| 2026-05-07 03:53 | 29.99650 | -95.34751 | 22016 ft | 364 kts | 324° |
| 2026-05-07 03:53 | 30.01940 | -95.36052 | 22664 ft | 368 kts | 323° |
| 2026-05-07 03:54 | 30.04249 | -95.37363 | 23323 ft | 371 kts | 323° |
| 2026-05-07 03:54 | 30.06576 | -95.38685 | 23889 ft | 375 kts | 323° |
| 2026-05-07 03:54 | 30.08923 | -95.40021 | 24423 ft | 377 kts | 323° |
| 2026-05-07 03:54 | 30.11290 | -95.41362 | 24995 ft | 380 kts | 323° |
| 2026-05-07 03:55 | 30.13675 | -95.42702 | 25541 ft | 383 kts | 323° |
| 2026-05-07 03:55 | 30.16077 | -95.44051 | 26076 ft | 385 kts | 323° |
| 2026-05-07 03:55 | 30.18498 | -95.45410 | 26592 ft | 388 kts | 323° |
| 2026-05-07 03:55 | 30.20937 | -95.46781 | 27098 ft | 391 kts | 323° |
| 2026-05-07 03:56 | 30.23394 | -95.48164 | 27600 ft | 394 kts | 323° |
| 2026-05-07 03:56 | 30.25866 | -95.49558 | 28108 ft | 397 kts | 323° |
| 2026-05-07 03:56 | 30.28355 | -95.50961 | 28622 ft | 399 kts | 323° |
| 2026-05-07 03:56 | 30.30857 | -95.52374 | 29111 ft | 402 kts | 323° |
| 2026-05-07 03:57 | 30.33380 | -95.53798 | 29608 ft | 404 kts | 323° |
| 2026-05-07 03:57 | 30.35912 | -95.55228 | 30086 ft | 406 kts | 323° |
| 2026-05-07 03:57 | 30.38454 | -95.56664 | 30474 ft | 408 kts | 323° |
| 2026-05-07 03:57 | 30.41010 | -95.58109 | 30868 ft | 409 kts | 323° |
| 2026-05-07 03:58 | 30.43573 | -95.59559 | 31251 ft | 410 kts | 323° |
| 2026-05-07 03:58 | 30.46143 | -95.61013 | 31628 ft | 412 kts | 322° |
| 2026-05-07 03:58 | 30.48718 | -95.62472 | 31980 ft | 413 kts | 322° |
| 2026-05-07 03:58 | 30.51307 | -95.63939 | 32284 ft | 415 kts | 322° |
| 2026-05-07 03:59 | 30.53905 | -95.65410 | 32618 ft | 417 kts | 323° |
| 2026-05-07 03:59 | 30.56536 | -95.66851 | 32944 ft | 419 kts | 323° |
| 2026-05-07 03:59 | 30.59157 | -95.68249 | 33256 ft | 421 kts | 324° |
| 2026-05-07 03:59 | 30.61827 | -95.69661 | 33602 ft | 423 kts | 324° |
| 2026-05-07 04:00 | 30.64510 | -95.71081 | 33903 ft | 424 kts | 324° |
| 2026-05-07 04:00 | 30.67197 | -95.72506 | 34127 ft | 426 kts | 323° |
| 2026-05-07 04:00 | 30.69901 | -95.73948 | 34322 ft | 428 kts | 323° |
| 2026-05-07 04:00 | 30.72611 | -95.75396 | 34548 ft | 430 kts | 323° |
| 2026-05-07 04:01 | 30.75332 | -95.76852 | 34781 ft | 431 kts | 323° |
| 2026-05-07 04:01 | 30.78054 | -95.78311 | 35000 ft | 432 kts | 323° |
| 2026-05-07 04:01 | 30.80788 | -95.79777 | 35207 ft | 433 kts | 323° |
| 2026-05-07 04:01 | 30.83530 | -95.81249 | 35458 ft | 435 kts | 323° |
| 2026-05-07 04:02 | 30.86274 | -95.82722 | 35671 ft | 435 kts | 323° |
| 2026-05-07 04:02 | 30.89025 | -95.84200 | 35901 ft | 435 kts | 323° |
| 2026-05-07 04:02 | 30.91770 | -95.85673 | 36181 ft | 433 kts | 323° |
| 2026-05-07 04:02 | 30.94500 | -95.87140 | 36484 ft | 431 kts | 323° |
| 2026-05-07 04:03 | 30.97220 | -95.88603 | 36744 ft | 430 kts | 322° |
| 2026-05-07 04:03 | 30.99939 | -95.90069 | 36965 ft | 430 kts | 322° |
| 2026-05-07 04:03 | 31.02649 | -95.91532 | 37180 ft | 429 kts | 322° |
| 2026-05-07 04:03 | 31.05355 | -95.92992 | 37438 ft | 428 kts | 322° |
| 2026-05-07 04:04 | 31.08055 | -95.94449 | 37690 ft | 427 kts | 322° |
| 2026-05-07 04:04 | 31.10744 | -95.95902 | 37981 ft | 425 kts | 321° |
| 2026-05-07 04:04 | 31.13317 | -95.97526 | 37982 ft | 415 kts | 312° |
| 2026-05-07 04:05 | 31.17891 | -96.01538 | 38011 ft | 414 kts | 310° |
| 2026-05-07 04:05 | 31.22495 | -96.05665 | 38016 ft | 420 kts | 310° |
| 2026-05-07 04:06 | 31.27151 | -96.09807 | 38028 ft | 422 kts | 310° |
| 2026-05-07 04:06 | 31.31843 | -96.13960 | 38023 ft | 423 kts | 310° |
| 2026-05-07 04:07 | 31.36512 | -96.18091 | 38024 ft | 424 kts | 310° |
| 2026-05-07 04:07 | 31.41216 | -96.22259 | 38033 ft | 424 kts | 310° |
| 2026-05-07 04:08 | 31.45906 | -96.26419 | 38025 ft | 423 kts | 310° |
| 2026-05-07 04:08 | 31.50584 | -96.30575 | 38039 ft | 421 kts | 310° |
| 2026-05-07 04:09 | 31.55242 | -96.34721 | 38045 ft | 420 kts | 310° |
| 2026-05-07 04:09 | 31.59890 | -96.38864 | 38041 ft | 419 kts | 310° |
| 2026-05-07 04:10 | 31.64523 | -96.42998 | 38141 ft | 418 kts | 309° |
| 2026-05-07 04:10 | 31.69154 | -96.47136 | 38113 ft | 418 kts | 309° |
| 2026-05-07 04:11 | 31.73779 | -96.51274 | 38096 ft | 417 kts | 309° |
| 2026-05-07 04:11 | 31.78391 | -96.55405 | 38092 ft | 417 kts | 309° |
| 2026-05-07 04:12 | 31.82997 | -96.59536 | 38051 ft | 416 kts | 309° |
| 2026-05-07 04:12 | 31.87601 | -96.63671 | 38057 ft | 416 kts | 309° |
| 2026-05-07 04:13 | 31.92172 | -96.67782 | 38092 ft | 417 kts | 308° |
| 2026-05-07 04:13 | 31.96775 | -96.71927 | 38071 ft | 416 kts | 308° |
| 2026-05-07 04:14 | 32.01372 | -96.76070 | 38067 ft | 416 kts | 308° |
| 2026-05-07 04:14 | 32.05966 | -96.80217 | 38076 ft | 416 kts | 308° |
| 2026-05-07 04:15 | 32.10553 | -96.84363 | 38074 ft | 415 kts | 308° |
| 2026-05-07 04:15 | 32.15138 | -96.88513 | 38085 ft | 415 kts | 308° |
| 2026-05-07 04:16 | 32.19725 | -96.92672 | 38089 ft | 416 kts | 308° |
| 2026-05-07 04:16 | 32.24315 | -96.96835 | 38090 ft | 416 kts | 308° |
| 2026-05-07 04:17 | 32.28898 | -97.00998 | 38089 ft | 415 kts | 308° |
| 2026-05-07 04:17 | 32.33470 | -97.05157 | 38074 ft | 414 kts | 308° |
| 2026-05-07 04:18 | 32.38034 | -97.09316 | 38104 ft | 414 kts | 308° |
| 2026-05-07 04:18 | 32.42599 | -97.13480 | 38131 ft | 414 kts | 308° |
| 2026-05-07 04:19 | 32.47160 | -97.17646 | 38107 ft | 414 kts | 308° |
| 2026-05-07 04:19 | 32.51712 | -97.21808 | 38110 ft | 413 kts | 308° |
| 2026-05-07 04:20 | 32.56254 | -97.25967 | 38108 ft | 412 kts | 308° |
| 2026-05-07 04:20 | 32.60758 | -97.30097 | 38109 ft | 412 kts | 308° |
| 2026-05-07 04:21 | 32.67552 | -97.36338 | 38164 ft | 412 kts | 307° |
| 2026-05-07 04:21 | 32.72093 | -97.40518 | 38114 ft | 413 kts | 307° |
| 2026-05-07 04:22 | 32.76621 | -97.44689 | 38107 ft | 412 kts | 307° |
| 2026-05-07 04:22 | 32.81153 | -97.48868 | 38111 ft | 412 kts | 307° |
| 2026-05-07 04:23 | 32.85680 | -97.53049 | 38007 ft | 412 kts | 307° |
| 2026-05-07 04:23 | 32.90201 | -97.57231 | 37993 ft | 412 kts | 307° |
| 2026-05-07 04:24 | 32.94723 | -97.61420 | 37992 ft | 413 kts | 307° |
| 2026-05-07 04:24 | 32.98486 | -97.64911 | 37978 ft | 413 kts | 307° |
| 2026-05-07 04:25 | 33.03790 | -97.69835 | 37998 ft | 413 kts | 307° |
| 2026-05-07 04:25 | 33.05290 | -97.71229 | 38126 ft | 414 kts | 307° |
| 2026-05-07 04:25 | 33.07561 | -97.73341 | 38126 ft | 414 kts | 307° |
| 2026-05-07 04:26 | 33.12834 | -97.78249 | 38137 ft | 414 kts | 307° |
| 2026-05-07 04:26 | 33.17375 | -97.82483 | 38142 ft | 414 kts | 307° |
| 2026-05-07 04:27 | 33.21176 | -97.86031 | 38138 ft | 414 kts | 307° |
| 2026-05-07 04:27 | 33.25714 | -97.90272 | 38129 ft | 414 kts | 307° |
| 2026-05-07 04:28 | 33.30251 | -97.94519 | 38125 ft | 414 kts | 307° |
| 2026-05-07 04:28 | 33.34789 | -97.98771 | 38111 ft | 415 kts | 307° |
| 2026-05-07 04:29 | 33.39332 | -98.03035 | 38113 ft | 415 kts | 307° |
| 2026-05-07 04:29 | 33.43843 | -98.07275 | 38147 ft | 416 kts | 307° |
| 2026-05-07 04:30 | 33.48388 | -98.11552 | 38098 ft | 415 kts | 307° |
| 2026-05-07 04:30 | 33.52926 | -98.15826 | 38089 ft | 414 kts | 307° |
| 2026-05-07 04:31 | 33.57451 | -98.20095 | 38085 ft | 413 kts | 307° |
| 2026-05-07 04:31 | 33.61964 | -98.24360 | 38086 ft | 413 kts | 307° |
| 2026-05-07 04:32 | 33.66468 | -98.28622 | 38092 ft | 412 kts | 307° |
| 2026-05-07 04:32 | 33.70967 | -98.32887 | 38097 ft | 412 kts | 307° |
| 2026-05-07 04:33 | 33.75460 | -98.37149 | 38089 ft | 411 kts | 307° |
| 2026-05-07 04:33 | 33.79935 | -98.41399 | 38094 ft | 409 kts | 307° |
| 2026-05-07 04:34 | 33.84393 | -98.45642 | 38134 ft | 408 kts | 307° |
| 2026-05-07 04:34 | 33.88841 | -98.49880 | 38141 ft | 407 kts | 307° |
| 2026-05-07 04:35 | 33.93281 | -98.54118 | 38163 ft | 407 kts | 306° |
| 2026-05-07 04:35 | 33.97716 | -98.58355 | 38134 ft | 407 kts | 306° |
| 2026-05-07 04:36 | 34.02202 | -98.62542 | 38120 ft | 409 kts | 308° |
| 2026-05-07 04:36 | 34.06751 | -98.66656 | 38110 ft | 409 kts | 308° |
| 2026-05-07 04:37 | 34.11299 | -98.70769 | 38104 ft | 408 kts | 308° |
| 2026-05-07 04:37 | 34.15834 | -98.74895 | 38093 ft | 409 kts | 307° |
| 2026-05-07 04:38 | 34.20378 | -98.79046 | 38108 ft | 410 kts | 307° |
| 2026-05-07 04:38 | 34.24937 | -98.83217 | 38099 ft | 412 kts | 307° |
| 2026-05-07 04:39 | 34.29508 | -98.87404 | 38103 ft | 413 kts | 307° |
| 2026-05-07 04:39 | 34.34086 | -98.91602 | 38112 ft | 413 kts | 307° |
| 2026-05-07 04:40 | 34.38663 | -98.95805 | 38109 ft | 413 kts | 307° |
| 2026-05-07 04:40 | 34.43244 | -99.00020 | 38118 ft | 414 kts | 307° |
| 2026-05-07 04:41 | 34.47836 | -99.04250 | 38096 ft | 415 kts | 307° |
| 2026-05-07 04:41 | 34.52425 | -99.08482 | 38108 ft | 415 kts | 307° |
| 2026-05-07 04:42 | 34.57023 | -99.12730 | 38112 ft | 415 kts | 307° |
| 2026-05-07 04:42 | 34.61619 | -99.16982 | 38124 ft | 416 kts | 307° |
| 2026-05-07 04:43 | 34.66223 | -99.21248 | 38155 ft | 417 kts | 307° |
| 2026-05-07 04:43 | 34.70838 | -99.25530 | 38127 ft | 417 kts | 307° |
| 2026-05-07 04:44 | 34.75449 | -99.29812 | 38176 ft | 417 kts | 307° |
| 2026-05-07 04:44 | 34.80053 | -99.34095 | 38171 ft | 417 kts | 307° |
| 2026-05-07 04:45 | 34.84648 | -99.38375 | 38110 ft | 416 kts | 307° |
| 2026-05-07 04:45 | 34.89239 | -99.42659 | 38162 ft | 416 kts | 307° |
| 2026-05-07 04:46 | 34.93827 | -99.46947 | 38144 ft | 415 kts | 307° |
| 2026-05-07 04:46 | 34.98417 | -99.51245 | 38142 ft | 416 kts | 307° |
| 2026-05-07 04:47 | 35.03012 | -99.55552 | 38145 ft | 417 kts | 307° |
| 2026-05-07 04:47 | 35.07615 | -99.59872 | 38147 ft | 417 kts | 307° |
| 2026-05-07 04:48 | 35.12217 | -99.64197 | 38228 ft | 417 kts | 307° |
| 2026-05-07 04:48 | 35.16827 | -99.68538 | 38174 ft | 419 kts | 308° |
| 2026-05-07 04:49 | 35.21443 | -99.72889 | 38162 ft | 419 kts | 308° |
| 2026-05-07 04:49 | 35.26052 | -99.77238 | 38163 ft | 418 kts | 308° |
| 2026-05-07 04:50 | 35.30656 | -99.81590 | 38163 ft | 418 kts | 308° |
| 2026-05-07 04:50 | 35.35257 | -99.85947 | 38232 ft | 418 kts | 308° |
| 2026-05-07 04:51 | 35.39870 | -99.90326 | 38184 ft | 420 kts | 308° |
| 2026-05-07 04:51 | 35.44497 | -99.94720 | 38178 ft | 421 kts | 308° |
| 2026-05-07 04:52 | 35.49129 | -99.99124 | 38184 ft | 422 kts | 308° |
| 2026-05-07 04:52 | 35.53763 | -100.03537 | 38179 ft | 422 kts | 308° |
| 2026-05-07 04:53 | 35.58395 | -100.07955 | 38178 ft | 422 kts | 308° |
| 2026-05-07 04:53 | 35.63026 | -100.12379 | 38196 ft | 422 kts | 308° |
| 2026-05-07 04:54 | 35.67653 | -100.16806 | 38195 ft | 421 kts | 308° |
| 2026-05-07 04:54 | 35.72277 | -100.21238 | 38212 ft | 421 kts | 309° |
| 2026-05-07 04:55 | 35.76904 | -100.25679 | 38208 ft | 422 kts | 309° |
| 2026-05-07 04:55 | 35.81532 | -100.30128 | 38257 ft | 422 kts | 310° |
| 2026-05-07 04:56 | 35.86177 | -100.34602 | 38234 ft | 424 kts | 310° |
| 2026-05-07 04:56 | 35.90829 | -100.39086 | 38229 ft | 424 kts | 310° |
| 2026-05-07 04:57 | 35.95482 | -100.43578 | 38220 ft | 425 kts | 310° |
| 2026-05-07 04:57 | 36.00140 | -100.48082 | 38219 ft | 425 kts | 310° |
| 2026-05-07 04:58 | 36.04768 | -100.52565 | 38279 ft | 425 kts | 310° |
| 2026-05-07 04:58 | 36.09434 | -100.57094 | 38233 ft | 427 kts | 311° |
| 2026-05-07 04:59 | 36.14111 | -100.61637 | 38221 ft | 427 kts | 311° |
| 2026-05-07 04:59 | 36.18787 | -100.66187 | 38219 ft | 428 kts | 311° |
| 2026-05-07 05:00 | 36.23467 | -100.70748 | 38219 ft | 428 kts | 311° |
| 2026-05-07 05:00 | 36.28151 | -100.75320 | 38242 ft | 429 kts | 312° |
| 2026-05-07 05:01 | 36.32851 | -100.79918 | 38220 ft | 431 kts | 312° |
| 2026-05-07 05:01 | 36.37558 | -100.84527 | 38220 ft | 431 kts | 312° |
| 2026-05-07 05:02 | 36.42273 | -100.89150 | 38205 ft | 432 kts | 312° |
| 2026-05-07 05:02 | 36.46987 | -100.93780 | 38225 ft | 432 kts | 312° |
| 2026-05-07 05:03 | 36.51705 | -100.98424 | 38236 ft | 434 kts | 313° |
| 2026-05-07 05:03 | 36.56433 | -101.03082 | 38248 ft | 433 kts | 313° |
| 2026-05-07 05:04 | 36.61157 | -101.07744 | 38241 ft | 433 kts | 313° |
| 2026-05-07 05:04 | 36.65872 | -101.12405 | 38250 ft | 433 kts | 313° |
| 2026-05-07 05:05 | 36.70583 | -101.17071 | 38252 ft | 432 kts | 313° |
| 2026-05-07 05:05 | 36.75297 | -101.21748 | 38258 ft | 433 kts | 313° |
| 2026-05-07 05:06 | 36.80003 | -101.26423 | 38243 ft | 433 kts | 313° |
| 2026-05-07 05:06 | 36.84708 | -101.31105 | 38243 ft | 432 kts | 314° |
| 2026-05-07 05:07 | 36.89409 | -101.35791 | 38238 ft | 432 kts | 314° |
| 2026-05-07 05:07 | 36.94108 | -101.40482 | 38276 ft | 432 kts | 314° |
| 2026-05-07 05:08 | 36.98014 | -101.44388 | 38254 ft | 432 kts | 315° |
| 2026-05-07 05:08 | 37.02709 | -101.49089 | 38235 ft | 432 kts | 315° |
| 2026-05-07 05:09 | 37.07398 | -101.53791 | 38235 ft | 429 kts | 314° |
| 2026-05-07 05:09 | 37.09697 | -101.56092 | 38219 ft | 417 kts | 314° |
| 2026-05-07 05:09 | 37.11930 | -101.58326 | 38225 ft | 407 kts | 314° |
| 2026-05-07 05:10 | 37.16320 | -101.62744 | 38253 ft | 404 kts | 315° |
| 2026-05-07 05:10 | 37.20690 | -101.67157 | 38248 ft | 402 kts | 315° |
| 2026-05-07 05:11 | 37.25043 | -101.71556 | 38243 ft | 401 kts | 315° |
| 2026-05-07 05:11 | 37.29390 | -101.75951 | 38239 ft | 404 kts | 315° |
| 2026-05-07 05:12 | 37.33811 | -101.80435 | 38244 ft | 413 kts | 315° |
| 2026-05-07 05:12 | 37.38336 | -101.85027 | 38240 ft | 423 kts | 316° |
| 2026-05-07 05:13 | 37.42959 | -101.89721 | 38232 ft | 431 kts | 316° |
| 2026-05-07 05:13 | 37.47655 | -101.94496 | 38233 ft | 437 kts | 316° |
| 2026-05-07 05:14 | 37.52391 | -101.99318 | 38225 ft | 439 kts | 316° |
| 2026-05-07 05:14 | 37.57139 | -102.04162 | 38223 ft | 439 kts | 316° |
| 2026-05-07 05:15 | 37.61887 | -102.09016 | 38223 ft | 440 kts | 317° |
| 2026-05-07 05:15 | 37.66633 | -102.13876 | 38224 ft | 439 kts | 317° |
| 2026-05-07 05:16 | 37.71366 | -102.18730 | 38224 ft | 438 kts | 317° |
| 2026-05-07 05:16 | 37.76087 | -102.23582 | 38225 ft | 437 kts | 317° |
| 2026-05-07 05:17 | 37.80796 | -102.28429 | 38230 ft | 436 kts | 317° |
| 2026-05-07 05:17 | 37.85499 | -102.33279 | 38225 ft | 436 kts | 317° |
| 2026-05-07 05:18 | 37.90193 | -102.38127 | 38229 ft | 435 kts | 317° |
| 2026-05-07 05:18 | 37.94882 | -102.42979 | 38216 ft | 435 kts | 317° |
| 2026-05-07 05:19 | 37.99564 | -102.47833 | 38241 ft | 435 kts | 318° |
| 2026-05-07 05:19 | 38.04253 | -102.52701 | 38213 ft | 436 kts | 318° |
| 2026-05-07 05:20 | 38.08939 | -102.57574 | 38203 ft | 436 kts | 318° |
| 2026-05-07 05:20 | 38.13626 | -102.62458 | 38203 ft | 436 kts | 318° |
| 2026-05-07 05:21 | 38.20675 | -102.69759 | 38224 ft | 436 kts | 321° |
| 2026-05-07 05:22 | 38.25580 | -102.74310 | 38212 ft | 436 kts | 323° |
| 2026-05-07 05:22 | 38.30538 | -102.78762 | 38206 ft | 435 kts | 323° |
| 2026-05-07 05:23 | 38.35468 | -102.83225 | 38216 ft | 434 kts | 323° |
| 2026-05-07 05:23 | 38.40406 | -102.87738 | 38226 ft | 434 kts | 323° |
| 2026-05-07 05:24 | 38.45291 | -102.92227 | 38231 ft | 432 kts | 323° |
| 2026-05-07 05:24 | 38.50117 | -102.96671 | 38226 ft | 430 kts | 323° |
| 2026-05-07 05:25 | 38.54958 | -103.01136 | 38227 ft | 428 kts | 323° |
| 2026-05-07 05:25 | 38.59776 | -103.05588 | 38225 ft | 427 kts | 323° |
| 2026-05-07 05:26 | 38.64583 | -103.10036 | 38236 ft | 426 kts | 323° |
| 2026-05-07 05:26 | 38.69372 | -103.14475 | 38210 ft | 424 kts | 323° |
| 2026-05-07 05:27 | 38.74137 | -103.18899 | 38207 ft | 422 kts | 323° |
| 2026-05-07 05:27 | 38.78880 | -103.23310 | 38221 ft | 421 kts | 323° |
| 2026-05-07 05:28 | 38.83613 | -103.27719 | 38239 ft | 420 kts | 324° |
| 2026-05-07 05:28 | 38.88339 | -103.32129 | 38226 ft | 419 kts | 323° |
| 2026-05-07 05:29 | 38.93051 | -103.36533 | 38212 ft | 419 kts | 323° |
| 2026-05-07 05:29 | 38.97756 | -103.40939 | 38216 ft | 418 kts | 323° |
| 2026-05-07 05:30 | 39.02454 | -103.45346 | 38213 ft | 418 kts | 323° |
| 2026-05-07 05:30 | 39.07152 | -103.49758 | 38161 ft | 418 kts | 323° |
| 2026-05-07 05:31 | 39.11850 | -103.54180 | 38172 ft | 419 kts | 324° |
| 2026-05-07 05:31 | 39.16558 | -103.58617 | 38172 ft | 419 kts | 324° |
| 2026-05-07 05:32 | 39.21269 | -103.63066 | 38164 ft | 420 kts | 324° |
| 2026-05-07 05:32 | 39.25990 | -103.67531 | 38165 ft | 421 kts | 324° |
| 2026-05-07 05:33 | 39.30721 | -103.72014 | 38168 ft | 422 kts | 324° |
| 2026-05-07 05:33 | 39.35455 | -103.76506 | 38168 ft | 423 kts | 324° |
| 2026-05-07 05:34 | 39.40196 | -103.81014 | 38188 ft | 423 kts | 323° |
| 2026-05-07 05:34 | 39.44941 | -103.85533 | 38194 ft | 424 kts | 323° |
| 2026-05-07 05:35 | 39.49685 | -103.90059 | 38169 ft | 424 kts | 324° |
| 2026-05-07 05:35 | 39.54424 | -103.94588 | 38168 ft | 424 kts | 324° |
| 2026-05-07 05:36 | 39.59165 | -103.99127 | 38164 ft | 424 kts | 324° |
| 2026-05-07 05:36 | 39.63901 | -104.03668 | 38168 ft | 423 kts | 324° |
| 2026-05-07 05:37 | 39.68636 | -104.08217 | 38157 ft | 423 kts | 324° |
| 2026-05-07 05:37 | 39.73362 | -104.12765 | 38152 ft | 423 kts | 324° |
| 2026-05-07 05:38 | 39.78083 | -104.17317 | 38144 ft | 422 kts | 324° |
| 2026-05-07 05:38 | 39.82798 | -104.21870 | 38131 ft | 422 kts | 323° |
| 2026-05-07 05:39 | 39.87507 | -104.26426 | 38136 ft | 422 kts | 323° |
| 2026-05-07 05:39 | 39.92213 | -104.30986 | 38143 ft | 422 kts | 323° |
| 2026-05-07 05:40 | 39.96923 | -104.35559 | 38146 ft | 422 kts | 323° |
| 2026-05-07 05:40 | 40.01628 | -104.40135 | 38164 ft | 422 kts | 323° |
| 2026-05-07 05:41 | 40.06337 | -104.44722 | 38150 ft | 422 kts | 323° |
| 2026-05-07 05:41 | 40.11037 | -104.49309 | 38153 ft | 422 kts | 323° |
| 2026-05-07 05:42 | 40.15727 | -104.53895 | 38164 ft | 421 kts | 323° |
| 2026-05-07 05:42 | 40.20415 | -104.58486 | 38166 ft | 421 kts | 323° |
| 2026-05-07 05:43 | 40.25096 | -104.63079 | 38155 ft | 420 kts | 323° |
| 2026-05-07 05:43 | 40.29774 | -104.67677 | 38138 ft | 420 kts | 323° |
| 2026-05-07 05:44 | 40.34441 | -104.72273 | 38124 ft | 420 kts | 323° |
| 2026-05-07 05:44 | 40.39111 | -104.76878 | 38139 ft | 419 kts | 323° |
| 2026-05-07 05:45 | 40.43770 | -104.81482 | 38135 ft | 419 kts | 323° |
| 2026-05-07 05:45 | 40.48427 | -104.86093 | 38153 ft | 419 kts | 323° |
| 2026-05-07 05:46 | 40.53081 | -104.90708 | 38167 ft | 419 kts | 323° |
| 2026-05-07 05:46 | 40.57730 | -104.95326 | 38146 ft | 419 kts | 323° |
| 2026-05-07 05:47 | 40.62388 | -104.99962 | 38171 ft | 420 kts | 323° |
| 2026-05-07 05:47 | 40.67058 | -105.04618 | 38148 ft | 422 kts | 323° |
| 2026-05-07 05:48 | 40.71737 | -105.09292 | 38132 ft | 422 kts | 323° |
| 2026-05-07 05:48 | 40.75631 | -105.13187 | 38138 ft | 423 kts | 323° |
| 2026-05-07 05:49 | 40.80316 | -105.17883 | 38130 ft | 423 kts | 323° |
| 2026-05-07 05:49 | 40.85026 | -105.22611 | 38122 ft | 422 kts | 323° |
| 2026-05-07 05:50 | 40.89697 | -105.27309 | 38120 ft | 422 kts | 323° |
| 2026-05-07 05:50 | 40.94329 | -105.31976 | 38129 ft | 421 kts | 322° |
| 2026-05-07 05:51 | 40.98985 | -105.36677 | 38133 ft | 421 kts | 322° |
| 2026-05-07 05:51 | 41.03638 | -105.41382 | 38129 ft | 420 kts | 322° |
| 2026-05-07 05:52 | 41.08279 | -105.46085 | 38138 ft | 419 kts | 322° |
| 2026-05-07 05:52 | 41.12910 | -105.50785 | 38135 ft | 419 kts | 322° |
| 2026-05-07 05:53 | 41.17570 | -105.55524 | 38138 ft | 419 kts | 322° |
| 2026-05-07 05:53 | 41.22166 | -105.60206 | 38121 ft | 419 kts | 322° |
| 2026-05-07 05:54 | 41.26816 | -105.64953 | 38104 ft | 419 kts | 322° |
| 2026-05-07 05:54 | 41.31400 | -105.69640 | 38120 ft | 418 kts | 322° |
| 2026-05-07 05:55 | 41.35979 | -105.74507 | 38125 ft | 418 kts | 319° |
| 2026-05-07 05:55 | 41.40356 | -105.79594 | 38121 ft | 418 kts | 319° |
| 2026-05-07 05:56 | 41.44708 | -105.84713 | 38121 ft | 417 kts | 319° |
| 2026-05-07 05:56 | 41.49062 | -105.89814 | 38138 ft | 416 kts | 319° |
| 2026-05-07 05:57 | 41.53420 | -105.94906 | 38133 ft | 416 kts | 319° |
| 2026-05-07 05:57 | 41.57763 | -105.99984 | 38091 ft | 415 kts | 319° |
| 2026-05-07 05:58 | 41.62099 | -106.05060 | 38110 ft | 414 kts | 319° |
| 2026-05-07 05:58 | 41.66431 | -106.10141 | 38123 ft | 414 kts | 319° |
| 2026-05-07 05:59 | 41.70764 | -106.15233 | 38117 ft | 415 kts | 319° |
| 2026-05-07 05:59 | 41.75095 | -106.20333 | 38120 ft | 415 kts | 319° |
| 2026-05-07 06:00 | 41.79429 | -106.25446 | 38123 ft | 415 kts | 319° |
| 2026-05-07 06:00 | 41.83762 | -106.30566 | 38124 ft | 415 kts | 319° |
| 2026-05-07 06:01 | 41.88090 | -106.35691 | 38106 ft | 415 kts | 319° |
| 2026-05-07 06:01 | 41.92412 | -106.40819 | 38115 ft | 414 kts | 319° |
| 2026-05-07 06:02 | 41.96729 | -106.45950 | 38119 ft | 414 kts | 319° |
| 2026-05-07 06:02 | 42.01040 | -106.51083 | 38119 ft | 414 kts | 319° |
| 2026-05-07 06:03 | 42.05352 | -106.56227 | 38122 ft | 414 kts | 318° |
| 2026-05-07 06:03 | 42.09659 | -106.61376 | 38107 ft | 414 kts | 318° |
| 2026-05-07 06:04 | 42.13961 | -106.66528 | 38104 ft | 414 kts | 318° |
| 2026-05-07 06:04 | 42.18261 | -106.71687 | 38089 ft | 414 kts | 318° |
| 2026-05-07 06:05 | 42.22555 | -106.76850 | 38096 ft | 413 kts | 318° |
| 2026-05-07 06:05 | 42.26842 | -106.82013 | 38079 ft | 413 kts | 318° |
| 2026-05-07 06:06 | 42.31118 | -106.87173 | 38081 ft | 412 kts | 318° |
| 2026-05-07 06:06 | 42.35387 | -106.92334 | 38074 ft | 412 kts | 318° |
| 2026-05-07 06:07 | 42.39652 | -106.97500 | 38070 ft | 411 kts | 318° |
| 2026-05-07 06:07 | 42.43902 | -107.02657 | 38060 ft | 410 kts | 318° |
| 2026-05-07 06:08 | 42.48141 | -107.07812 | 38046 ft | 408 kts | 318° |
| 2026-05-07 06:08 | 42.52358 | -107.12950 | 38051 ft | 407 kts | 318° |
| 2026-05-07 06:09 | 42.56561 | -107.18079 | 38046 ft | 406 kts | 318° |
| 2026-05-07 06:09 | 42.60756 | -107.23209 | 38041 ft | 405 kts | 318° |
| 2026-05-07 06:10 | 42.64915 | -107.28304 | 38037 ft | 405 kts | 318° |
| 2026-05-07 06:10 | 42.69127 | -107.33474 | 38038 ft | 405 kts | 318° |
| 2026-05-07 06:11 | 42.73278 | -107.38579 | 38039 ft | 405 kts | 318° |
| 2026-05-07 06:11 | 42.77452 | -107.43722 | 38026 ft | 405 kts | 318° |
| 2026-05-07 06:12 | 42.81625 | -107.48874 | 38028 ft | 405 kts | 318° |
| 2026-05-07 06:12 | 42.85830 | -107.54075 | 38026 ft | 406 kts | 318° |
| 2026-05-07 06:13 | 42.90009 | -107.59253 | 38030 ft | 406 kts | 318° |
| 2026-05-07 06:13 | 42.94188 | -107.64441 | 38012 ft | 406 kts | 318° |
| 2026-05-07 06:14 | 42.98360 | -107.69632 | 38017 ft | 406 kts | 318° |
| 2026-05-07 06:14 | 43.02530 | -107.74829 | 37980 ft | 406 kts | 318° |
| 2026-05-07 06:15 | 43.06687 | -107.80019 | 38000 ft | 404 kts | 318° |
| 2026-05-07 06:15 | 43.10826 | -107.85198 | 38006 ft | 403 kts | 318° |
| 2026-05-07 06:16 | 43.14954 | -107.90374 | 38001 ft | 402 kts | 318° |
| 2026-05-07 06:16 | 43.19071 | -107.95544 | 38018 ft | 401 kts | 318° |
| 2026-05-07 06:17 | 43.23182 | -108.00717 | 37995 ft | 401 kts | 318° |
| 2026-05-07 06:17 | 43.27289 | -108.05896 | 37999 ft | 401 kts | 318° |
| 2026-05-07 06:18 | 43.31393 | -108.11080 | 37995 ft | 401 kts | 317° |
| 2026-05-07 06:18 | 43.35491 | -108.16268 | 37986 ft | 400 kts | 317° |
| 2026-05-07 06:19 | 43.39582 | -108.21456 | 37988 ft | 400 kts | 317° |
| 2026-05-07 06:19 | 43.43673 | -108.26653 | 37980 ft | 400 kts | 317° |
| 2026-05-07 06:20 | 43.47822 | -108.31731 | 37995 ft | 399 kts | 321° |
| 2026-05-07 06:20 | 43.52193 | -108.36472 | 37988 ft | 401 kts | 321° |
| 2026-05-07 06:21 | 43.56605 | -108.41197 | 37987 ft | 402 kts | 321° |
| 2026-05-07 06:21 | 43.61012 | -108.45954 | 37992 ft | 403 kts | 321° |
| 2026-05-07 06:22 | 43.65419 | -108.50741 | 37989 ft | 403 kts | 321° |
| 2026-05-07 06:22 | 43.72033 | -108.57955 | 37989 ft | 404 kts | 321° |
| 2026-05-07 06:23 | 43.76438 | -108.62774 | 37981 ft | 403 kts | 321° |
| 2026-05-07 06:23 | 43.80837 | -108.67596 | 37981 ft | 403 kts | 321° |
| 2026-05-07 06:24 | 43.85227 | -108.72417 | 37980 ft | 403 kts | 321° |
| 2026-05-07 06:24 | 43.89619 | -108.77248 | 37984 ft | 403 kts | 321° |
| 2026-05-07 06:25 | 43.94011 | -108.82090 | 37980 ft | 404 kts | 321° |
| 2026-05-07 06:25 | 43.98409 | -108.86948 | 37976 ft | 404 kts | 321° |
| 2026-05-07 06:26 | 44.02814 | -108.91823 | 37974 ft | 405 kts | 321° |
| 2026-05-07 06:26 | 44.07221 | -108.96710 | 37979 ft | 405 kts | 321° |
| 2026-05-07 06:27 | 44.10884 | -109.00779 | 37973 ft | 405 kts | 321° |
| 2026-05-07 06:27 | 44.15318 | -109.05712 | 37993 ft | 405 kts | 321° |
| 2026-05-07 06:28 | 44.19721 | -109.10623 | 37996 ft | 405 kts | 321° |
| 2026-05-07 06:28 | 44.24121 | -109.15540 | 37995 ft | 405 kts | 321° |
| 2026-05-07 06:29 | 44.28489 | -109.20430 | 37997 ft | 405 kts | 321° |
| 2026-05-07 06:29 | 44.32882 | -109.25359 | 38027 ft | 406 kts | 321° |
| 2026-05-07 06:30 | 44.37279 | -109.30299 | 38012 ft | 405 kts | 321° |
| 2026-05-07 06:30 | 44.41663 | -109.35234 | 38007 ft | 404 kts | 321° |
| 2026-05-07 06:31 | 44.46032 | -109.40164 | 38003 ft | 403 kts | 321° |
| 2026-05-07 06:31 | 44.50393 | -109.45094 | 38049 ft | 403 kts | 321° |
| 2026-05-07 06:32 | 44.54783 | -109.50068 | 38031 ft | 403 kts | 321° |
| 2026-05-07 06:32 | 44.59102 | -109.54970 | 38028 ft | 401 kts | 321° |
| 2026-05-07 06:33 | 44.63440 | -109.59904 | 38042 ft | 401 kts | 321° |
| 2026-05-07 06:33 | 44.67771 | -109.64840 | 38039 ft | 400 kts | 321° |
| 2026-05-07 06:34 | 44.72091 | -109.69772 | 38042 ft | 395 kts | 321° |
| 2026-05-07 06:34 | 44.76332 | -109.74624 | 38054 ft | 392 kts | 321° |
| 2026-05-07 06:35 | 44.80526 | -109.79432 | 38051 ft | 390 kts | 321° |
| 2026-05-07 06:35 | 44.84724 | -109.84253 | 38064 ft | 389 kts | 320° |
| 2026-05-07 06:36 | 44.88909 | -109.89070 | 38078 ft | 389 kts | 321° |
| 2026-05-07 06:36 | 44.93098 | -109.93900 | 38079 ft | 389 kts | 321° |
| 2026-05-07 06:37 | 44.97289 | -109.98742 | 38070 ft | 389 kts | 321° |
| 2026-05-07 06:37 | 45.01483 | -110.03596 | 38074 ft | 390 kts | 321° |
| 2026-05-07 06:38 | 45.05664 | -110.08444 | 38078 ft | 387 kts | 321° |
| 2026-05-07 06:38 | 45.09835 | -110.13292 | 38068 ft | 389 kts | 321° |
| 2026-05-07 06:39 | 45.14018 | -110.18162 | 38062 ft | 389 kts | 321° |
| 2026-05-07 06:39 | 45.18200 | -110.23040 | 38060 ft | 390 kts | 320° |
| 2026-05-07 06:40 | 45.22383 | -110.27931 | 38048 ft | 390 kts | 321° |
| 2026-05-07 06:40 | 45.26566 | -110.32829 | 38054 ft | 390 kts | 320° |
| 2026-05-07 06:41 | 45.30743 | -110.37732 | 38042 ft | 389 kts | 321° |
| 2026-05-07 06:41 | 45.34915 | -110.42637 | 38041 ft | 390 kts | 320° |
| 2026-05-07 06:42 | 45.39090 | -110.47556 | 38065 ft | 390 kts | 320° |
| 2026-05-07 06:42 | 45.41184 | -110.50027 | 38214 ft | 391 kts | 320° |
| 2026-05-07 06:42 | 45.43271 | -110.52492 | 38460 ft | 389 kts | 320° |
| 2026-05-07 06:43 | 45.45343 | -110.54942 | 38747 ft | 386 kts | 320° |
| 2026-05-07 06:43 | 45.47409 | -110.57387 | 38933 ft | 386 kts | 320° |
| 2026-05-07 06:43 | 45.49476 | -110.59835 | 39041 ft | 388 kts | 320° |
| 2026-05-07 06:43 | 45.51530 | -110.62271 | 39078 ft | 390 kts | 320° |
| 2026-05-07 06:44 | 45.55722 | -110.67249 | 39192 ft | 394 kts | 320° |
| 2026-05-07 06:44 | 45.59943 | -110.72272 | 39354 ft | 395 kts | 320° |
| 2026-05-07 06:45 | 45.64163 | -110.77304 | 39555 ft | 394 kts | 320° |
| 2026-05-07 06:45 | 45.66263 | -110.79812 | 39736 ft | 393 kts | 320° |
| 2026-05-07 06:45 | 45.68363 | -110.82323 | 39823 ft | 394 kts | 320° |
| 2026-05-07 06:46 | 45.70466 | -110.84839 | 39930 ft | 394 kts | 320° |
| 2026-05-07 06:46 | 45.72576 | -110.87365 | 39960 ft | 396 kts | 320° |
| 2026-05-07 06:46 | 45.76825 | -110.92463 | 39962 ft | 399 kts | 320° |
| 2026-05-07 06:47 | 45.81070 | -110.97566 | 39964 ft | 397 kts | 320° |
| 2026-05-07 06:47 | 45.85288 | -111.02647 | 39971 ft | 395 kts | 320° |
| 2026-05-07 06:48 | 45.89493 | -111.07723 | 39962 ft | 394 kts | 320° |
| 2026-05-07 06:48 | 45.93686 | -111.12795 | 39964 ft | 394 kts | 320° |
| 2026-05-07 06:49 | 45.97875 | -111.17872 | 39951 ft | 394 kts | 320° |
| 2026-05-07 06:49 | 46.02067 | -111.22963 | 39952 ft | 394 kts | 320° |
| 2026-05-07 06:50 | 46.06261 | -111.28066 | 39936 ft | 395 kts | 319° |
| 2026-05-07 06:50 | 46.10466 | -111.33195 | 39918 ft | 396 kts | 319° |
| 2026-05-07 06:51 | 46.14646 | -111.38303 | 39913 ft | 397 kts | 319° |
| 2026-05-07 06:51 | 46.18851 | -111.43452 | 39918 ft | 397 kts | 319° |
| 2026-05-07 06:52 | 46.23055 | -111.48612 | 39906 ft | 397 kts | 319° |
| 2026-05-07 06:52 | 46.27258 | -111.53780 | 39905 ft | 396 kts | 319° |
| 2026-05-07 06:53 | 46.31455 | -111.58952 | 39911 ft | 396 kts | 319° |
| 2026-05-07 06:53 | 46.35652 | -111.64135 | 39907 ft | 397 kts | 319° |
| 2026-05-07 06:54 | 46.39846 | -111.69326 | 39923 ft | 397 kts | 319° |
| 2026-05-07 06:54 | 46.44040 | -111.74527 | 39938 ft | 397 kts | 319° |
| 2026-05-07 06:55 | 46.48226 | -111.79729 | 39940 ft | 396 kts | 319° |
| 2026-05-07 06:55 | 46.52410 | -111.84941 | 39958 ft | 397 kts | 319° |
| 2026-05-07 06:56 | 46.56615 | -111.90188 | 39961 ft | 399 kts | 319° |
| 2026-05-07 06:56 | 46.60824 | -111.95452 | 39941 ft | 399 kts | 319° |
| 2026-05-07 06:57 | 46.64982 | -112.00787 | 39949 ft | 398 kts | 318° |
| 2026-05-07 06:57 | 46.69106 | -112.06162 | 39950 ft | 398 kts | 318° |
| 2026-05-07 06:58 | 46.73227 | -112.11540 | 39940 ft | 397 kts | 318° |
| 2026-05-07 06:58 | 46.77347 | -112.16917 | 39940 ft | 397 kts | 318° |
| 2026-05-07 06:59 | 46.81464 | -112.22296 | 39928 ft | 397 kts | 318° |
| 2026-05-07 06:59 | 46.85579 | -112.27686 | 39925 ft | 397 kts | 318° |
| 2026-05-07 07:00 | 46.89694 | -112.33082 | 39921 ft | 398 kts | 318° |
| 2026-05-07 07:00 | 46.93812 | -112.38493 | 39911 ft | 397 kts | 318° |
| 2026-05-07 07:01 | 46.97919 | -112.43903 | 39927 ft | 398 kts | 318° |
| 2026-05-07 07:01 | 47.02034 | -112.49336 | 39912 ft | 398 kts | 318° |
| 2026-05-07 07:02 | 47.06149 | -112.54779 | 39913 ft | 399 kts | 317° |
| 2026-05-07 07:02 | 47.10263 | -112.60235 | 39905 ft | 399 kts | 317° |
| 2026-05-07 07:03 | 47.14373 | -112.65696 | 39924 ft | 398 kts | 317° |
| 2026-05-07 07:03 | 47.18483 | -112.71170 | 39913 ft | 399 kts | 317° |
| 2026-05-07 07:04 | 47.22590 | -112.76652 | 39922 ft | 398 kts | 317° |
| 2026-05-07 07:04 | 47.26689 | -112.82135 | 39920 ft | 398 kts | 317° |
| 2026-05-07 07:05 | 47.30772 | -112.87608 | 39913 ft | 396 kts | 317° |
| 2026-05-07 07:05 | 47.34824 | -112.93053 | 39924 ft | 393 kts | 317° |
| 2026-05-07 07:06 | 47.38869 | -112.98497 | 39914 ft | 394 kts | 317° |
| 2026-05-07 07:06 | 47.42914 | -113.03957 | 39918 ft | 394 kts | 317° |
| 2026-05-07 07:07 | 47.46962 | -113.09430 | 39910 ft | 394 kts | 317° |
| 2026-05-07 07:07 | 47.51000 | -113.14902 | 39909 ft | 392 kts | 317° |
| 2026-05-07 07:08 | 47.55016 | -113.20357 | 39928 ft | 392 kts | 317° |
| 2026-05-07 07:08 | 47.59023 | -113.25810 | 39911 ft | 390 kts | 317° |
| 2026-05-07 07:09 | 47.63010 | -113.31249 | 39932 ft | 389 kts | 317° |
| 2026-05-07 07:09 | 47.67001 | -113.36705 | 39927 ft | 391 kts | 317° |
| 2026-05-07 07:10 | 47.71000 | -113.42184 | 39927 ft | 392 kts | 317° |
| 2026-05-07 07:10 | 47.74994 | -113.47666 | 39939 ft | 390 kts | 317° |
| 2026-05-07 07:11 | 47.78337 | -113.52267 | 39920 ft | 392 kts | 317° |
| 2026-05-07 07:11 | 47.82338 | -113.57783 | 39926 ft | 393 kts | 317° |
| 2026-05-07 07:12 | 47.86352 | -113.63329 | 39916 ft | 394 kts | 317° |
| 2026-05-07 07:12 | 47.90367 | -113.68888 | 39921 ft | 394 kts | 317° |
| 2026-05-07 07:13 | 47.94384 | -113.74462 | 39911 ft | 395 kts | 317° |
| 2026-05-07 07:13 | 47.98404 | -113.80053 | 39905 ft | 395 kts | 317° |
| 2026-05-07 07:14 | 48.02422 | -113.85655 | 39894 ft | 395 kts | 317° |
| 2026-05-07 07:14 | 48.06439 | -113.91266 | 39898 ft | 395 kts | 317° |
| 2026-05-07 07:15 | 48.10451 | -113.96884 | 39905 ft | 396 kts | 317° |
| 2026-05-07 07:15 | 48.14466 | -114.02519 | 39910 ft | 396 kts | 317° |
| 2026-05-07 07:16 | 48.18479 | -114.08162 | 39926 ft | 395 kts | 317° |
| 2026-05-07 07:16 | 48.22486 | -114.13812 | 39938 ft | 396 kts | 317° |
| 2026-05-07 07:17 | 48.26493 | -114.19473 | 39945 ft | 395 kts | 317° |
| 2026-05-07 07:17 | 48.30496 | -114.25141 | 39946 ft | 396 kts | 317° |
| 2026-05-07 07:18 | 48.34503 | -114.30828 | 39945 ft | 396 kts | 317° |
| 2026-05-07 07:18 | 48.38509 | -114.36527 | 39941 ft | 397 kts | 317° |
| 2026-05-07 07:19 | 48.42513 | -114.42237 | 39835 ft | 396 kts | 317° |
| 2026-05-07 07:19 | 48.46501 | -114.47935 | 39841 ft | 395 kts | 316° |
| 2026-05-07 07:20 | 48.50475 | -114.53628 | 39848 ft | 394 kts | 316° |
| 2026-05-07 07:20 | 48.54439 | -114.59318 | 39849 ft | 393 kts | 316° |
| 2026-05-07 07:21 | 48.58391 | -114.65004 | 39853 ft | 392 kts | 316° |
| 2026-05-07 07:21 | 48.62333 | -114.70689 | 39858 ft | 392 kts | 316° |
| 2026-05-07 07:22 | 48.66270 | -114.76379 | 39866 ft | 391 kts | 316° |
| 2026-05-07 07:22 | 48.70201 | -114.82073 | 39875 ft | 391 kts | 316° |
| 2026-05-07 07:23 | 48.74127 | -114.87774 | 39873 ft | 391 kts | 316° |
| 2026-05-07 07:23 | 48.78050 | -114.93483 | 39877 ft | 391 kts | 316° |
| 2026-05-07 07:24 | 48.81968 | -114.99197 | 39890 ft | 391 kts | 316° |
| 2026-05-07 07:24 | 48.85888 | -115.04929 | 39889 ft | 392 kts | 316° |
| 2026-05-07 07:25 | 48.91775 | -115.13560 | 39890 ft | 392 kts | 316° |
| 2026-05-07 07:26 | 48.95696 | -115.19324 | 39890 ft | 392 kts | 316° |
| 2026-05-07 07:26 | 48.99614 | -115.25100 | 39904 ft | 392 kts | 316° |
| 2026-05-07 07:27 | 49.03532 | -115.30886 | 39897 ft | 392 kts | 316° |
| 2026-05-07 07:27 | 49.07438 | -115.36668 | 39922 ft | 391 kts | 316° |
| 2026-05-07 07:28 | 49.11343 | -115.42465 | 39903 ft | 392 kts | 316° |
| 2026-05-07 07:28 | 49.15248 | -115.48274 | 39910 ft | 393 kts | 316° |
| 2026-05-07 07:29 | 49.19156 | -115.54100 | 39919 ft | 392 kts | 316° |
| 2026-05-07 07:29 | 49.23052 | -115.59920 | 39950 ft | 391 kts | 315° |
| 2026-05-07 07:30 | 49.26948 | -115.65757 | 39944 ft | 393 kts | 315° |
| 2026-05-07 07:30 | 49.30855 | -115.71624 | 39950 ft | 393 kts | 315° |
| 2026-05-07 07:31 | 49.34757 | -115.77496 | 39923 ft | 393 kts | 315° |
| 2026-05-07 07:31 | 49.38651 | -115.83371 | 39932 ft | 392 kts | 315° |
| 2026-05-07 07:32 | 49.42535 | -115.89245 | 39939 ft | 391 kts | 315° |
| 2026-05-07 07:32 | 49.46409 | -115.95118 | 39940 ft | 391 kts | 315° |
| 2026-05-07 07:33 | 49.50273 | -116.00987 | 39939 ft | 391 kts | 315° |
| 2026-05-07 07:33 | 49.54139 | -116.06871 | 39935 ft | 391 kts | 315° |
| 2026-05-07 07:34 | 49.58167 | -116.12477 | 39946 ft | 391 kts | 319° |
| 2026-05-07 07:34 | 49.62330 | -116.17801 | 39947 ft | 392 kts | 319° |
| 2026-05-07 07:35 | 49.66574 | -116.23223 | 39921 ft | 394 kts | 319° |
| 2026-05-07 07:35 | 49.70741 | -116.28587 | 39943 ft | 392 kts | 319° |
| 2026-05-07 07:36 | 49.74919 | -116.33998 | 39964 ft | 393 kts | 319° |
| 2026-05-07 07:36 | 49.79140 | -116.39484 | 39957 ft | 394 kts | 319° |
| 2026-05-07 07:37 | 49.83327 | -116.44940 | 39968 ft | 393 kts | 319° |
| 2026-05-07 07:37 | 49.87515 | -116.50408 | 39966 ft | 393 kts | 319° |
| 2026-05-07 07:38 | 49.91667 | -116.55844 | 39959 ft | 394 kts | 318° |
| 2026-05-07 07:38 | 49.95842 | -116.61322 | 39982 ft | 392 kts | 319° |
| 2026-05-07 07:39 | 50.00015 | -116.66811 | 39985 ft | 393 kts | 318° |
| 2026-05-07 07:39 | 50.04188 | -116.72312 | 39972 ft | 393 kts | 318° |
| 2026-05-07 07:40 | 50.08353 | -116.77815 | 39975 ft | 392 kts | 318° |
| 2026-05-07 07:40 | 50.12495 | -116.83302 | 39979 ft | 390 kts | 318° |
| 2026-05-07 07:41 | 50.16634 | -116.88799 | 39977 ft | 392 kts | 318° |
| 2026-05-07 07:41 | 50.20794 | -116.94335 | 39965 ft | 393 kts | 318° |
| 2026-05-07 07:42 | 50.24954 | -116.99884 | 39963 ft | 393 kts | 318° |
| 2026-05-07 07:42 | 50.29103 | -117.05431 | 39951 ft | 391 kts | 318° |
| 2026-05-07 07:43 | 50.33227 | -117.10959 | 39979 ft | 390 kts | 318° |
| 2026-05-07 07:43 | 50.37356 | -117.16507 | 39981 ft | 392 kts | 318° |
| 2026-05-07 07:44 | 50.41483 | -117.22064 | 40013 ft | 387 kts | 318° |
| 2026-05-07 07:44 | 50.43524 | -117.24817 | 39889 ft | 387 kts | 318° |
| 2026-05-07 07:44 | 50.45559 | -117.27566 | 39987 ft | 388 kts | 318° |
| 2026-05-07 07:45 | 50.49684 | -117.33151 | 39961 ft | 394 kts | 317° |
| 2026-05-07 07:45 | 50.53841 | -117.38789 | 39978 ft | 394 kts | 317° |
| 2026-05-07 07:46 | 50.57995 | -117.44437 | 39973 ft | 395 kts | 317° |
| 2026-05-07 07:46 | 50.62147 | -117.50096 | 39977 ft | 395 kts | 317° |
| 2026-05-07 07:47 | 50.66294 | -117.55761 | 39988 ft | 394 kts | 317° |
| 2026-05-07 07:47 | 50.70439 | -117.61439 | 39974 ft | 395 kts | 317° |
| 2026-05-07 07:48 | 50.74584 | -117.67130 | 39981 ft | 395 kts | 317° |
| 2026-05-07 07:48 | 50.78737 | -117.72845 | 39948 ft | 395 kts | 317° |
| 2026-05-07 07:49 | 50.82858 | -117.78529 | 39968 ft | 393 kts | 317° |
| 2026-05-07 07:49 | 50.86982 | -117.84235 | 39993 ft | 394 kts | 317° |
| 2026-05-07 07:50 | 50.91115 | -117.89962 | 39957 ft | 395 kts | 316° |
| 2026-05-07 07:50 | 50.95243 | -117.95693 | 39985 ft | 393 kts | 316° |
| 2026-05-07 07:51 | 50.98660 | -118.00451 | 39987 ft | 393 kts | 316° |
| 2026-05-07 07:51 | 51.02780 | -118.06208 | 39980 ft | 396 kts | 316° |
| 2026-05-07 07:52 | 51.06913 | -118.11995 | 39974 ft | 396 kts | 316° |
| 2026-05-07 07:52 | 51.11053 | -118.17806 | 39979 ft | 397 kts | 316° |
| 2026-05-07 07:53 | 51.15203 | -118.23645 | 39970 ft | 398 kts | 316° |
| 2026-05-07 07:53 | 51.19314 | -118.29441 | 39977 ft | 397 kts | 316° |
| 2026-05-07 07:54 | 51.23452 | -118.35290 | 39967 ft | 398 kts | 316° |
| 2026-05-07 07:54 | 51.27624 | -118.41203 | 39951 ft | 399 kts | 316° |
| 2026-05-07 07:55 | 51.31775 | -118.47100 | 39948 ft | 400 kts | 315° |
| 2026-05-07 07:55 | 51.35916 | -118.53000 | 39978 ft | 403 kts | 316° |
| 2026-05-07 07:56 | 51.40109 | -118.58983 | 39940 ft | 398 kts | 316° |
| 2026-05-07 07:56 | 51.44207 | -118.64849 | 39958 ft | 398 kts | 316° |
| 2026-05-07 07:57 | 51.48341 | -118.70785 | 39941 ft | 399 kts | 315° |
| 2026-05-07 07:57 | 51.52475 | -118.76732 | 39946 ft | 399 kts | 315° |
| 2026-05-07 07:58 | 51.56640 | -118.82740 | 39935 ft | 400 kts | 315° |
| 2026-05-07 07:58 | 51.60747 | -118.88680 | 39930 ft | 400 kts | 315° |
| 2026-05-07 07:59 | 51.64882 | -118.94675 | 39949 ft | 401 kts | 315° |
| 2026-05-07 07:59 | 51.69048 | -119.00733 | 39942 ft | 404 kts | 315° |
| 2026-05-07 08:00 | 51.73222 | -119.06815 | 39932 ft | 405 kts | 315° |
| 2026-05-07 08:00 | 51.77392 | -119.12907 | 39940 ft | 404 kts | 315° |
| 2026-05-07 08:01 | 51.81553 | -119.19003 | 39955 ft | 404 kts | 315° |
| 2026-05-07 08:01 | 51.85715 | -119.25115 | 39952 ft | 404 kts | 315° |
| 2026-05-07 08:02 | 51.89867 | -119.31231 | 39963 ft | 404 kts | 315° |
| 2026-05-07 08:02 | 51.94023 | -119.37367 | 39960 ft | 404 kts | 315° |
| 2026-05-07 08:03 | 51.98162 | -119.43492 | 39973 ft | 402 kts | 315° |
| 2026-05-07 08:03 | 52.02298 | -119.49632 | 39978 ft | 403 kts | 315° |
| 2026-05-07 08:04 | 52.06438 | -119.55795 | 39976 ft | 405 kts | 315° |
| 2026-05-07 08:04 | 52.10587 | -119.61985 | 39984 ft | 405 kts | 315° |
| 2026-05-07 08:05 | 52.14739 | -119.68196 | 39970 ft | 405 kts | 315° |
| 2026-05-07 08:05 | 52.18881 | -119.74409 | 39975 ft | 405 kts | 315° |
| 2026-05-07 08:06 | 52.23015 | -119.80626 | 39980 ft | 404 kts | 315° |
| 2026-05-07 08:06 | 52.27141 | -119.86848 | 39984 ft | 404 kts | 315° |
| 2026-05-07 08:07 | 52.31268 | -119.93089 | 39989 ft | 404 kts | 315° |
| 2026-05-07 08:07 | 52.35392 | -119.99341 | 40005 ft | 403 kts | 314° |
| 2026-05-07 08:08 | 52.39499 | -120.05584 | 40004 ft | 404 kts | 314° |
| 2026-05-07 08:08 | 52.43615 | -120.11864 | 39993 ft | 405 kts | 314° |
| 2026-05-07 08:09 | 52.47744 | -120.18174 | 40004 ft | 407 kts | 314° |
| 2026-05-07 08:09 | 52.51880 | -120.24507 | 40002 ft | 407 kts | 314° |
| 2026-05-07 08:10 | 52.56020 | -120.30867 | 40010 ft | 407 kts | 314° |
| 2026-05-07 08:10 | 52.60158 | -120.37241 | 40011 ft | 408 kts | 314° |
| 2026-05-07 08:11 | 52.64295 | -120.43631 | 39997 ft | 407 kts | 314° |
| 2026-05-07 08:11 | 52.68427 | -120.50031 | 40012 ft | 408 kts | 314° |
| 2026-05-07 08:12 | 52.72563 | -120.56457 | 40017 ft | 407 kts | 314° |
| 2026-05-07 08:12 | 52.76682 | -120.62871 | 40018 ft | 407 kts | 314° |
| 2026-05-07 08:13 | 52.80801 | -120.69306 | 40019 ft | 408 kts | 314° |
| 2026-05-07 08:13 | 52.84929 | -120.75771 | 40021 ft | 409 kts | 314° |
| 2026-05-07 08:14 | 52.89056 | -120.82251 | 40027 ft | 407 kts | 314° |
| 2026-05-07 08:14 | 52.93159 | -120.88712 | 40017 ft | 408 kts | 314° |
| 2026-05-07 08:15 | 52.97266 | -120.95198 | 40022 ft | 408 kts | 314° |
| 2026-05-07 08:15 | 53.01371 | -121.01697 | 40038 ft | 407 kts | 313° |
| 2026-05-07 08:16 | 53.05476 | -121.08216 | 40030 ft | 409 kts | 313° |
| 2026-05-07 08:16 | 53.09591 | -121.14770 | 40037 ft | 410 kts | 313° |
| 2026-05-07 08:17 | 53.13712 | -121.21349 | 40031 ft | 410 kts | 313° |
| 2026-05-07 08:17 | 53.17823 | -121.27930 | 40052 ft | 410 kts | 313° |
| 2026-05-07 08:18 | 53.21936 | -121.34536 | 40034 ft | 411 kts | 313° |
| 2026-05-07 08:18 | 53.26050 | -121.41160 | 40043 ft | 411 kts | 313° |
| 2026-05-07 08:19 | 53.30165 | -121.47806 | 40043 ft | 412 kts | 313° |
| 2026-05-07 08:19 | 53.34280 | -121.54469 | 40045 ft | 412 kts | 313° |
| 2026-05-07 08:20 | 53.38396 | -121.61152 | 40048 ft | 412 kts | 313° |
| 2026-05-07 08:20 | 53.42511 | -121.67854 | 40039 ft | 412 kts | 313° |
| 2026-05-07 08:21 | 53.46621 | -121.74566 | 40036 ft | 413 kts | 313° |
| 2026-05-07 08:21 | 53.50729 | -121.81295 | 40042 ft | 413 kts | 313° |
| 2026-05-07 08:22 | 53.54829 | -121.88029 | 40043 ft | 411 kts | 313° |
| 2026-05-07 08:22 | 53.58920 | -121.94768 | 40053 ft | 412 kts | 313° |
| 2026-05-07 08:23 | 53.63019 | -122.01540 | 40039 ft | 413 kts | 313° |
| 2026-05-07 08:23 | 53.67118 | -122.08332 | 40038 ft | 413 kts | 312° |
| 2026-05-07 08:24 | 53.71213 | -122.15136 | 40034 ft | 413 kts | 312° |
| 2026-05-07 08:24 | 53.75305 | -122.21955 | 40035 ft | 413 kts | 312° |
| 2026-05-07 08:25 | 53.79395 | -122.28791 | 40033 ft | 414 kts | 312° |
| 2026-05-07 08:25 | 53.83488 | -122.35652 | 40024 ft | 414 kts | 312° |
| 2026-05-07 08:26 | 53.89598 | -122.45995 | 40020 ft | 413 kts | 309° |
| 2026-05-07 08:26 | 53.93223 | -122.53522 | 40014 ft | 412 kts | 306° |
| 2026-05-07 08:27 | 53.96784 | -122.61154 | 40025 ft | 413 kts | 306° |
| 2026-05-07 08:27 | 54.00355 | -122.68806 | 40019 ft | 413 kts | 306° |
| 2026-05-07 08:28 | 54.03931 | -122.76458 | 40029 ft | 413 kts | 306° |
| 2026-05-07 08:28 | 54.07510 | -122.84125 | 40035 ft | 413 kts | 306° |
| 2026-05-07 08:29 | 54.11085 | -122.91800 | 40036 ft | 413 kts | 306° |
| 2026-05-07 08:29 | 54.14653 | -122.99487 | 40028 ft | 413 kts | 306° |
| 2026-05-07 08:30 | 54.18217 | -123.07187 | 40035 ft | 413 kts | 306° |
| 2026-05-07 08:30 | 54.21775 | -123.14900 | 40036 ft | 413 kts | 306° |
| 2026-05-07 08:31 | 54.25329 | -123.22627 | 40035 ft | 413 kts | 306° |
| 2026-05-07 08:31 | 54.28876 | -123.30364 | 40037 ft | 413 kts | 306° |
| 2026-05-07 08:32 | 54.32420 | -123.38117 | 40048 ft | 414 kts | 306° |
| 2026-05-07 08:32 | 54.35363 | -123.44575 | 40036 ft | 414 kts | 306° |
| 2026-05-07 08:33 | 54.38903 | -123.52364 | 40033 ft | 414 kts | 306° |
| 2026-05-07 08:33 | 54.42434 | -123.60159 | 40041 ft | 414 kts | 305° |
| 2026-05-07 08:34 | 54.45962 | -123.67972 | 40050 ft | 414 kts | 305° |
| 2026-05-07 08:34 | 54.49485 | -123.75797 | 40054 ft | 414 kts | 305° |
| 2026-05-07 08:35 | 54.53006 | -123.83644 | 40043 ft | 414 kts | 305° |
| 2026-05-07 08:35 | 54.56523 | -123.91507 | 40043 ft | 414 kts | 305° |
| 2026-05-07 08:36 | 54.60034 | -123.99380 | 40049 ft | 414 kts | 305° |
| 2026-05-07 08:36 | 54.63542 | -124.07272 | 40046 ft | 415 kts | 305° |
| 2026-05-07 08:37 | 54.67046 | -124.15182 | 40060 ft | 415 kts | 305° |
| 2026-05-07 08:37 | 54.70547 | -124.23107 | 40056 ft | 415 kts | 304° |
| 2026-05-07 08:38 | 54.74044 | -124.31050 | 40044 ft | 415 kts | 304° |
| 2026-05-07 08:38 | 54.77539 | -124.39015 | 40053 ft | 415 kts | 304° |
| 2026-05-07 08:39 | 54.81029 | -124.46994 | 40046 ft | 415 kts | 304° |
| 2026-05-07 08:39 | 54.84515 | -124.54989 | 40057 ft | 416 kts | 304° |
| 2026-05-07 08:40 | 54.88002 | -124.63012 | 40055 ft | 417 kts | 304° |
| 2026-05-07 08:40 | 54.91488 | -124.71059 | 40049 ft | 417 kts | 304° |
| 2026-05-07 08:41 | 54.94966 | -124.79115 | 40056 ft | 416 kts | 304° |
| 2026-05-07 08:41 | 54.98438 | -124.87181 | 40061 ft | 416 kts | 304° |
| 2026-05-07 08:42 | 55.01904 | -124.95262 | 40064 ft | 416 kts | 304° |
| 2026-05-07 08:42 | 55.05368 | -125.03363 | 40071 ft | 417 kts | 304° |
| 2026-05-07 08:43 | 55.08833 | -125.11494 | 40064 ft | 418 kts | 304° |
| 2026-05-07 08:43 | 55.12294 | -125.19642 | 40074 ft | 418 kts | 304° |
| 2026-05-07 08:44 | 55.15749 | -125.27804 | 40066 ft | 417 kts | 304° |
| 2026-05-07 08:44 | 55.19197 | -125.35975 | 40069 ft | 418 kts | 303° |
| 2026-05-07 08:45 | 55.22647 | -125.44178 | 40077 ft | 419 kts | 303° |
| 2026-05-07 08:45 | 55.26093 | -125.52400 | 40081 ft | 419 kts | 303° |
| 2026-05-07 08:46 | 55.29536 | -125.60642 | 40084 ft | 419 kts | 303° |
| 2026-05-07 08:46 | 55.32980 | -125.68914 | 40092 ft | 420 kts | 303° |
| 2026-05-07 08:47 | 55.36422 | -125.77208 | 40081 ft | 420 kts | 303° |
| 2026-05-07 08:47 | 55.39862 | -125.85525 | 40097 ft | 421 kts | 303° |
| 2026-05-07 08:48 | 55.43299 | -125.93863 | 40087 ft | 421 kts | 303° |
| 2026-05-07 08:48 | 55.46726 | -126.02208 | 40094 ft | 420 kts | 303° |
| 2026-05-07 08:49 | 55.50146 | -126.10561 | 40092 ft | 420 kts | 303° |
| 2026-05-07 08:49 | 55.53558 | -126.18922 | 40100 ft | 420 kts | 303° |
| 2026-05-07 08:50 | 55.56966 | -126.27306 | 40119 ft | 420 kts | 303° |
| 2026-05-07 08:50 | 55.60371 | -126.35710 | 40126 ft | 421 kts | 303° |
| 2026-05-07 08:51 | 55.63775 | -126.44139 | 40125 ft | 421 kts | 302° |
| 2026-05-07 08:51 | 55.67180 | -126.52599 | 40134 ft | 422 kts | 302° |
| 2026-05-07 08:52 | 55.70583 | -126.61086 | 40099 ft | 422 kts | 302° |
| 2026-05-07 08:52 | 55.73977 | -126.69575 | 40135 ft | 422 kts | 302° |
| 2026-05-07 08:53 | 55.77369 | -126.78093 | 40135 ft | 423 kts | 302° |
| 2026-05-07 08:53 | 55.80765 | -126.86649 | 40136 ft | 423 kts | 302° |
| 2026-05-07 08:54 | 55.84155 | -126.95222 | 40133 ft | 424 kts | 302° |
| 2026-05-07 08:54 | 55.87539 | -127.03808 | 40145 ft | 424 kts | 302° |
| 2026-05-07 08:55 | 55.90915 | -127.12402 | 40159 ft | 423 kts | 302° |
| 2026-05-07 08:55 | 55.94260 | -127.20948 | 40161 ft | 423 kts | 302° |
| 2026-05-07 08:56 | 55.97624 | -127.29574 | 40158 ft | 423 kts | 302° |
| 2026-05-07 08:56 | 56.00978 | -127.38206 | 40167 ft | 422 kts | 302° |
| 2026-05-07 08:57 | 56.04326 | -127.46850 | 40157 ft | 423 kts | 302° |
| 2026-05-07 08:57 | 56.07671 | -127.55520 | 40181 ft | 424 kts | 301° |
| 2026-05-07 08:58 | 56.11012 | -127.64209 | 40170 ft | 423 kts | 301° |
| 2026-05-07 08:58 | 56.14349 | -127.72917 | 40162 ft | 424 kts | 301° |
| 2026-05-07 08:59 | 56.17676 | -127.81633 | 40181 ft | 423 kts | 301° |
| 2026-05-07 08:59 | 56.20996 | -127.90361 | 40183 ft | 423 kts | 301° |
| 2026-05-07 09:00 | 56.24310 | -127.99103 | 40189 ft | 423 kts | 301° |
| 2026-05-07 09:00 | 56.27619 | -128.07863 | 40191 ft | 423 kts | 301° |
| 2026-05-07 09:01 | 56.30922 | -128.16640 | 40195 ft | 424 kts | 301° |
| 2026-05-07 09:01 | 56.34228 | -128.25455 | 40199 ft | 425 kts | 301° |
| 2026-05-07 09:02 | 56.37530 | -128.34294 | 40203 ft | 425 kts | 301° |
| 2026-05-07 09:02 | 56.40829 | -128.43158 | 40198 ft | 426 kts | 301° |
| 2026-05-07 09:03 | 56.44124 | -128.52040 | 40204 ft | 425 kts | 301° |
| 2026-05-07 09:03 | 56.47413 | -128.60940 | 40198 ft | 425 kts | 300° |
| 2026-05-07 09:04 | 56.50691 | -128.69845 | 40217 ft | 425 kts | 300° |
| 2026-05-07 09:04 | 56.53959 | -128.78755 | 40218 ft | 425 kts | 300° |
| 2026-05-07 09:05 | 56.57223 | -128.87686 | 40219 ft | 425 kts | 300° |
| 2026-05-07 09:05 | 56.60485 | -128.96643 | 40221 ft | 426 kts | 300° |
| 2026-05-07 09:06 | 56.63746 | -129.05634 | 40214 ft | 426 kts | 300° |
| 2026-05-07 09:06 | 56.66997 | -129.14626 | 40224 ft | 426 kts | 300° |
| 2026-05-07 09:07 | 56.70244 | -129.23644 | 40216 ft | 426 kts | 300° |
| 2026-05-07 09:07 | 56.73481 | -129.32665 | 40216 ft | 425 kts | 300° |
| 2026-05-07 09:08 | 56.76709 | -129.41700 | 40241 ft | 425 kts | 299° |
| 2026-05-07 09:08 | 56.79472 | -129.51171 | 40234 ft | 423 kts | 294° |
| 2026-05-07 09:09 | 56.82068 | -129.60814 | 40245 ft | 423 kts | 293° |
| 2026-05-07 09:09 | 56.84663 | -129.70469 | 40230 ft | 423 kts | 293° |
| 2026-05-07 09:10 | 56.87264 | -129.80119 | 40225 ft | 423 kts | 293° |
| 2026-05-07 09:10 | 56.89864 | -129.89772 | 40231 ft | 423 kts | 293° |
| 2026-05-07 09:11 | 56.92460 | -129.99446 | 40240 ft | 424 kts | 293° |
| 2026-05-07 09:11 | 56.95053 | -130.09150 | 40244 ft | 424 kts | 293° |
| 2026-05-07 09:12 | 56.97641 | -130.18876 | 40243 ft | 425 kts | 293° |
| 2026-05-07 09:12 | 57.00223 | -130.28621 | 40234 ft | 425 kts | 293° |
| 2026-05-07 09:13 | 57.02793 | -130.38363 | 40230 ft | 423 kts | 292° |
| 2026-05-07 09:13 | 57.05341 | -130.48063 | 40257 ft | 421 kts | 292° |
| 2026-05-07 09:14 | 57.07466 | -130.56188 | 40240 ft | 421 kts | 292° |
| 2026-05-07 09:14 | 57.09978 | -130.65831 | 40245 ft | 421 kts | 292° |
| 2026-05-07 09:15 | 57.12504 | -130.75571 | 40240 ft | 422 kts | 292° |
| 2026-05-07 09:15 | 57.15024 | -130.85327 | 40234 ft | 422 kts | 292° |
| 2026-05-07 09:16 | 57.17537 | -130.95098 | 40242 ft | 422 kts | 292° |
| 2026-05-07 09:16 | 57.20042 | -131.04879 | 40245 ft | 422 kts | 292° |
| 2026-05-07 09:17 | 57.22556 | -131.14741 | 40250 ft | 421 kts | 292° |
| 2026-05-07 09:17 | 57.25039 | -131.24523 | 40241 ft | 421 kts | 292° |
| 2026-05-07 09:18 | 57.27515 | -131.34322 | 40273 ft | 421 kts | 292° |
| 2026-05-07 09:18 | 57.29984 | -131.44140 | 40226 ft | 419 kts | 292° |
| 2026-05-07 09:19 | 57.32431 | -131.53907 | 40273 ft | 420 kts | 291° |
| 2026-05-07 09:19 | 57.34873 | -131.63709 | 40265 ft | 423 kts | 291° |
| 2026-05-07 09:20 | 57.37359 | -131.73724 | 40263 ft | 426 kts | 291° |
| 2026-05-07 09:20 | 57.39817 | -131.83672 | 40234 ft | 428 kts | 291° |
| 2026-05-07 09:21 | 57.42286 | -131.93707 | 40240 ft | 427 kts | 291° |
| 2026-05-07 09:21 | 57.44741 | -132.03729 | 40268 ft | 427 kts | 291° |
| 2026-05-07 09:22 | 57.47186 | -132.13761 | 40254 ft | 425 kts | 291° |
| 2026-05-07 09:22 | 57.49619 | -132.23789 | 40271 ft | 426 kts | 291° |
| 2026-05-07 09:23 | 57.52043 | -132.33830 | 40266 ft | 425 kts | 291° |
| 2026-05-07 09:23 | 57.54455 | -132.43863 | 40266 ft | 424 kts | 291° |
| 2026-05-07 09:24 | 57.56852 | -132.53882 | 40295 ft | 423 kts | 291° |
| 2026-05-07 09:24 | 57.59242 | -132.63914 | 40290 ft | 424 kts | 291° |
| 2026-05-07 09:25 | 57.61626 | -132.73975 | 40307 ft | 425 kts | 290° |
| 2026-05-07 09:25 | 57.64011 | -132.84083 | 40305 ft | 426 kts | 290° |
| 2026-05-07 09:26 | 57.66393 | -132.94225 | 40320 ft | 427 kts | 290° |
| 2026-05-07 09:26 | 57.68771 | -133.04399 | 40312 ft | 428 kts | 290° |
| 2026-05-07 09:27 | 57.71142 | -133.14591 | 40317 ft | 428 kts | 290° |
| 2026-05-07 09:28 | 57.74686 | -133.29920 | 40317 ft | 428 kts | 290° |
| 2026-05-07 09:28 | 57.77042 | -133.40166 | 40323 ft | 429 kts | 290° |
| 2026-05-07 09:29 | 57.79392 | -133.50440 | 40309 ft | 429 kts | 290° |
| 2026-05-07 09:29 | 57.81738 | -133.60747 | 40301 ft | 430 kts | 290° |
| 2026-05-07 09:30 | 57.84078 | -133.71074 | 40302 ft | 429 kts | 290° |
| 2026-05-07 09:30 | 57.86405 | -133.81397 | 40322 ft | 430 kts | 290° |
| 2026-05-07 09:31 | 57.88727 | -133.91749 | 40308 ft | 430 kts | 290° |
| 2026-05-07 09:31 | 57.91045 | -134.02134 | 40300 ft | 431 kts | 289° |
| 2026-05-07 09:32 | 57.93356 | -134.12536 | 40303 ft | 431 kts | 289° |
| 2026-05-07 09:32 | 57.95659 | -134.22953 | 40296 ft | 431 kts | 289° |
| 2026-05-07 09:33 | 57.97954 | -134.33390 | 40306 ft | 431 kts | 289° |
| 2026-05-07 09:33 | 58.00241 | -134.43840 | 40308 ft | 432 kts | 289° |
| 2026-05-07 09:34 | 58.02523 | -134.54323 | 40306 ft | 432 kts | 289° |
| 2026-05-07 09:34 | 58.04798 | -134.64826 | 40303 ft | 432 kts | 289° |
| 2026-05-07 09:35 | 58.07067 | -134.75356 | 40291 ft | 433 kts | 289° |
| 2026-05-07 09:35 | 58.09329 | -134.85902 | 40293 ft | 433 kts | 289° |
| 2026-05-07 09:36 | 58.11581 | -134.96461 | 40294 ft | 433 kts | 289° |
| 2026-05-07 09:36 | 58.13826 | -135.07037 | 40307 ft | 433 kts | 289° |
| 2026-05-07 09:37 | 58.16059 | -135.17604 | 40310 ft | 432 kts | 289° |
| 2026-05-07 09:37 | 58.18443 | -135.28039 | 40303 ft | 434 kts | 297° |
| 2026-05-07 09:38 | 58.21661 | -135.37750 | 40309 ft | 435 kts | 298° |
| 2026-05-07 09:38 | 58.24917 | -135.47411 | 40309 ft | 434 kts | 298° |
| 2026-05-07 09:39 | 58.28137 | -135.57126 | 40315 ft | 435 kts | 298° |
| 2026-05-07 09:39 | 58.31337 | -135.66884 | 40309 ft | 435 kts | 298° |
| 2026-05-07 09:40 | 58.34532 | -135.76663 | 40299 ft | 435 kts | 298° |
| 2026-05-07 09:40 | 58.37718 | -135.86461 | 40304 ft | 435 kts | 297° |
| 2026-05-07 09:41 | 58.40891 | -135.96288 | 40296 ft | 435 kts | 297° |
| 2026-05-07 09:41 | 58.44056 | -136.06133 | 40301 ft | 436 kts | 297° |
| 2026-05-07 09:42 | 58.47221 | -136.16015 | 40291 ft | 436 kts | 297° |
| 2026-05-07 09:42 | 58.50381 | -136.25917 | 40282 ft | 437 kts | 297° |
| 2026-05-07 09:43 | 58.53541 | -136.35856 | 40289 ft | 437 kts | 297° |
| 2026-05-07 09:43 | 58.56697 | -136.45809 | 40283 ft | 437 kts | 297° |
| 2026-05-07 09:44 | 58.59841 | -136.55763 | 40295 ft | 437 kts | 297° |
| 2026-05-07 09:44 | 58.62985 | -136.65762 | 40280 ft | 438 kts | 297° |
| 2026-05-07 09:45 | 58.66128 | -136.75800 | 40288 ft | 439 kts | 297° |
| 2026-05-07 09:45 | 58.69268 | -136.85875 | 40281 ft | 440 kts | 297° |
| 2026-05-07 09:46 | 58.72403 | -136.95975 | 40285 ft | 440 kts | 297° |
| 2026-05-07 09:46 | 58.75529 | -137.06089 | 40306 ft | 439 kts | 297° |
| 2026-05-07 09:47 | 58.78653 | -137.16244 | 40293 ft | 441 kts | 297° |
| 2026-05-07 09:47 | 58.81777 | -137.26443 | 40284 ft | 442 kts | 297° |
| 2026-05-07 09:48 | 58.84900 | -137.36681 | 40274 ft | 443 kts | 296° |
| 2026-05-07 09:48 | 58.88017 | -137.46943 | 40278 ft | 443 kts | 296° |
| 2026-05-07 09:49 | 58.91121 | -137.57208 | 40295 ft | 442 kts | 296° |
| 2026-05-07 09:49 | 58.94220 | -137.67506 | 40292 ft | 443 kts | 296° |
| 2026-05-07 09:50 | 58.97314 | -137.77827 | 40285 ft | 443 kts | 296° |
| 2026-05-07 09:50 | 59.00397 | -137.88151 | 40290 ft | 442 kts | 296° |
| 2026-05-07 09:51 | 59.03472 | -137.98486 | 40288 ft | 442 kts | 296° |
| 2026-05-07 09:51 | 59.06537 | -138.08830 | 40291 ft | 442 kts | 296° |
| 2026-05-07 09:52 | 59.09595 | -138.19204 | 40294 ft | 443 kts | 296° |
| 2026-05-07 09:52 | 59.12649 | -138.29607 | 40287 ft | 443 kts | 296° |
| 2026-05-07 09:53 | 59.15694 | -138.40027 | 40280 ft | 442 kts | 296° |
| 2026-05-07 09:53 | 59.18728 | -138.50456 | 40272 ft | 442 kts | 296° |
| 2026-05-07 09:54 | 59.21749 | -138.60886 | 40280 ft | 441 kts | 296° |
| 2026-05-07 09:54 | 59.24252 | -138.69568 | 40294 ft | 442 kts | 296° |
| 2026-05-07 09:55 | 59.27259 | -138.80039 | 40290 ft | 442 kts | 295° |
| 2026-05-07 09:55 | 59.30263 | -138.90548 | 40282 ft | 443 kts | 295° |
| 2026-05-07 09:56 | 59.33263 | -139.01090 | 40277 ft | 443 kts | 295° |
| 2026-05-07 09:56 | 59.36251 | -139.11639 | 40276 ft | 443 kts | 295° |
| 2026-05-07 09:57 | 59.39234 | -139.22219 | 40294 ft | 443 kts | 295° |
| 2026-05-07 09:57 | 59.42212 | -139.32831 | 40281 ft | 444 kts | 295° |
| 2026-05-07 09:58 | 59.45186 | -139.43478 | 40263 ft | 445 kts | 295° |
| 2026-05-07 09:58 | 59.48155 | -139.54152 | 40268 ft | 445 kts | 295° |
| 2026-05-07 09:59 | 59.51074 | -139.64879 | 40265 ft | 443 kts | 291° |
| 2026-05-07 09:59 | 59.53147 | -139.76239 | 40263 ft | 440 kts | 285° |
| 2026-05-07 10:00 | 59.55034 | -139.87733 | 40277 ft | 441 kts | 285° |
| 2026-05-07 10:00 | 59.56930 | -139.99250 | 40266 ft | 442 kts | 285° |
| 2026-05-07 10:01 | 59.58839 | -140.10765 | 40267 ft | 442 kts | 285° |
| 2026-05-07 10:01 | 59.60749 | -140.22290 | 40258 ft | 442 kts | 285° |
| 2026-05-07 10:02 | 59.62650 | -140.33828 | 40261 ft | 442 kts | 285° |
| 2026-05-07 10:02 | 59.64541 | -140.45380 | 40270 ft | 442 kts | 285° |
| 2026-05-07 10:03 | 59.66423 | -140.56952 | 40261 ft | 442 kts | 285° |
| 2026-05-07 10:03 | 59.68296 | -140.68550 | 40258 ft | 442 kts | 285° |
| 2026-05-07 10:04 | 59.70158 | -140.80154 | 40259 ft | 442 kts | 285° |
| 2026-05-07 10:04 | 59.72008 | -140.91764 | 40257 ft | 442 kts | 285° |
| 2026-05-07 10:05 | 59.73848 | -141.03382 | 40247 ft | 442 kts | 284° |
| 2026-05-07 10:05 | 59.75677 | -141.15016 | 40260 ft | 442 kts | 284° |
| 2026-05-07 10:06 | 59.77498 | -141.26670 | 40251 ft | 443 kts | 284° |
| 2026-05-07 10:06 | 59.79309 | -141.38347 | 40250 ft | 443 kts | 284° |
| 2026-05-07 10:07 | 59.81111 | -141.50040 | 40248 ft | 443 kts | 284° |
| 2026-05-07 10:07 | 59.82903 | -141.61746 | 40247 ft | 443 kts | 284° |
| 2026-05-07 10:08 | 59.84684 | -141.73464 | 40258 ft | 443 kts | 284° |
| 2026-05-07 10:08 | 59.86457 | -141.85211 | 40246 ft | 444 kts | 284° |
| 2026-05-07 10:09 | 59.88223 | -141.96991 | 40238 ft | 444 kts | 284° |
| 2026-05-07 10:09 | 59.89979 | -142.08786 | 40238 ft | 444 kts | 284° |
| 2026-05-07 10:10 | 59.91724 | -142.20595 | 40238 ft | 444 kts | 284° |
| 2026-05-07 10:10 | 59.93460 | -142.32422 | 40236 ft | 444 kts | 284° |
| 2026-05-07 10:11 | 59.95186 | -142.44268 | 40244 ft | 445 kts | 284° |
| 2026-05-07 10:11 | 59.96903 | -142.56142 | 40229 ft | 445 kts | 284° |
| 2026-05-07 10:12 | 59.98611 | -142.68032 | 40229 ft | 445 kts | 283° |
| 2026-05-07 10:12 | 60.00306 | -142.79926 | 40229 ft | 445 kts | 283° |
| 2026-05-07 10:13 | 60.01993 | -142.91841 | 40228 ft | 445 kts | 283° |
| 2026-05-07 10:13 | 60.03667 | -143.03761 | 40241 ft | 445 kts | 283° |
| 2026-05-07 10:14 | 60.05331 | -143.15698 | 40228 ft | 446 kts | 283° |
| 2026-05-07 10:14 | 60.06987 | -143.27661 | 40223 ft | 446 kts | 283° |
| 2026-05-07 10:15 | 60.08632 | -143.39640 | 40220 ft | 446 kts | 283° |
| 2026-05-07 10:15 | 60.10267 | -143.51631 | 40220 ft | 446 kts | 283° |
| 2026-05-07 10:16 | 60.11891 | -143.63642 | 40217 ft | 446 kts | 283° |
| 2026-05-07 10:16 | 60.13504 | -143.75654 | 40218 ft | 446 kts | 283° |
| 2026-05-07 10:17 | 60.15106 | -143.87687 | 40221 ft | 446 kts | 283° |
| 2026-05-07 10:17 | 60.16696 | -143.99719 | 40220 ft | 446 kts | 282° |
| 2026-05-07 10:18 | 60.18277 | -144.11775 | 40218 ft | 446 kts | 282° |
| 2026-05-07 10:18 | 60.19845 | -144.23827 | 40217 ft | 446 kts | 282° |
| 2026-05-07 10:19 | 60.21403 | -144.35899 | 40222 ft | 446 kts | 282° |
| 2026-05-07 10:19 | 60.22950 | -144.47987 | 40234 ft | 447 kts | 282° |
| 2026-05-07 10:20 | 60.24491 | -144.60106 | 40229 ft | 447 kts | 282° |
| 2026-05-07 10:20 | 60.26020 | -144.72239 | 40210 ft | 447 kts | 282° |
| 2026-05-07 10:21 | 60.27536 | -144.84385 | 40208 ft | 447 kts | 282° |
| 2026-05-07 10:21 | 60.29040 | -144.96528 | 40212 ft | 446 kts | 282° |
| 2026-05-07 10:22 | 60.30535 | -145.08687 | 40222 ft | 447 kts | 282° |
| 2026-05-07 10:22 | 60.32019 | -145.20855 | 40217 ft | 447 kts | 282° |
| 2026-05-07 10:23 | 60.33493 | -145.33041 | 40219 ft | 447 kts | 282° |
| 2026-05-07 10:23 | 60.34954 | -145.45243 | 40206 ft | 447 kts | 281° |
| 2026-05-07 10:24 | 60.36405 | -145.57444 | 40203 ft | 447 kts | 281° |
| 2026-05-07 10:24 | 60.37845 | -145.69663 | 40207 ft | 447 kts | 281° |
| 2026-05-07 10:25 | 60.39275 | -145.81895 | 40206 ft | 447 kts | 281° |
| 2026-05-07 10:25 | 60.40695 | -145.94155 | 40200 ft | 448 kts | 281° |
| 2026-05-07 10:26 | 60.42105 | -146.06431 | 40193 ft | 448 kts | 281° |
| 2026-05-07 10:26 | 60.43503 | -146.18720 | 40194 ft | 448 kts | 281° |
| 2026-05-07 10:27 | 60.44891 | -146.31018 | 40188 ft | 448 kts | 281° |
| 2026-05-07 10:27 | 60.46269 | -146.43334 | 40195 ft | 448 kts | 281° |
| 2026-05-07 10:28 | 60.47631 | -146.55584 | 40182 ft | 449 kts | 282° |
| 2026-05-07 10:28 | 60.48709 | -146.61529 | 40169 ft | 453 kts | 297° |
| 2026-05-07 10:28 | 60.50463 | -146.66861 | 40194 ft | 455 kts | 304° |
| 2026-05-07 10:29 | 60.54329 | -146.77068 | 40180 ft | 457 kts | 305° |
| 2026-05-07 10:29 | 60.58182 | -146.87335 | 40167 ft | 457 kts | 304° |
| 2026-05-07 10:30 | 60.63859 | -147.02912 | 40182 ft | 457 kts | 304° |
| 2026-05-07 10:30 | 60.67599 | -147.13393 | 40173 ft | 457 kts | 303° |
| 2026-05-07 10:31 | 60.71297 | -147.23946 | 40168 ft | 457 kts | 303° |
| 2026-05-07 10:31 | 60.74986 | -147.34511 | 40169 ft | 457 kts | 303° |
| 2026-05-07 10:32 | 60.78672 | -147.45097 | 40163 ft | 457 kts | 303° |
| 2026-05-07 10:32 | 60.82351 | -147.55700 | 40178 ft | 457 kts | 303° |
| 2026-05-07 10:33 | 60.86024 | -147.66333 | 40148 ft | 457 kts | 303° |
| 2026-05-07 10:33 | 60.87864 | -147.71679 | 39713 ft | 457 kts | 303° |
| 2026-05-07 10:33 | 60.89687 | -147.76984 | 39029 ft | 456 kts | 302° |
| 2026-05-07 10:34 | 60.91514 | -147.82319 | 38279 ft | 455 kts | 302° |
| 2026-05-07 10:34 | 60.93326 | -147.87618 | 37489 ft | 453 kts | 302° |
| 2026-05-07 10:34 | 60.95134 | -147.92917 | 36722 ft | 451 kts | 302° |
| 2026-05-07 10:34 | 60.96928 | -147.98190 | 35957 ft | 450 kts | 302° |
| 2026-05-07 10:35 | 60.98722 | -148.03474 | 35091 ft | 450 kts | 301° |
| 2026-05-07 10:35 | 61.00511 | -148.08757 | 34282 ft | 448 kts | 301° |
| 2026-05-07 10:35 | 61.01695 | -148.12261 | 33467 ft | 451 kts | 301° |
| 2026-05-07 10:35 | 61.03481 | -148.17553 | 32559 ft | 447 kts | 301° |
| 2026-05-07 10:36 | 61.05250 | -148.22804 | 31402 ft | 447 kts | 301° |
| 2026-05-07 10:36 | 61.07013 | -148.28053 | 30458 ft | 443 kts | 300° |
| 2026-05-07 10:36 | 61.08758 | -148.33258 | 29223 ft | 441 kts | 300° |
| 2026-05-07 10:36 | 61.10501 | -148.38471 | 27921 ft | 440 kts | 300° |
| 2026-05-07 10:37 | 61.12234 | -148.43666 | 26691 ft | 439 kts | 300° |
| 2026-05-07 10:37 | 61.13938 | -148.48890 | 25496 ft | 436 kts | 297° |
| 2026-05-07 10:37 | 61.15186 | -148.54520 | 24432 ft | 426 kts | 287° |
| 2026-05-07 10:37 | 61.16157 | -148.60256 | 23442 ft | 420 kts | 285° |
| 2026-05-07 10:38 | 61.17095 | -148.65953 | 22385 ft | 415 kts | 286° |
| 2026-05-07 10:38 | 61.18032 | -148.71564 | 21425 ft | 407 kts | 286° |
| 2026-05-07 10:38 | 61.18965 | -148.77051 | 20493 ft | 401 kts | 287° |
| 2026-05-07 10:38 | 61.19897 | -148.82449 | 19579 ft | 395 kts | 287° |
| 2026-05-07 10:39 | 61.20823 | -148.87781 | 18676 ft | 390 kts | 287° |
| 2026-05-07 10:39 | 61.21738 | -148.93051 | 17687 ft | 386 kts | 287° |
| 2026-05-07 10:39 | 61.22641 | -148.98254 | 16763 ft | 381 kts | 287° |
| 2026-05-07 10:39 | 61.23529 | -149.03399 | 15806 ft | 378 kts | 287° |
| 2026-05-07 10:40 | 61.24385 | -149.08530 | 14951 ft | 374 kts | 283° |
| 2026-05-07 10:40 | 61.24840 | -149.13734 | 14586 ft | 363 kts | 274° |
| 2026-05-07 10:40 | 61.25117 | -149.19017 | 14166 ft | 375 kts | 274° |
| 2026-05-07 10:40 | 61.25390 | -149.24483 | 13748 ft | 385 kts | 274° |
| 2026-05-07 10:41 | 61.25690 | -149.30028 | 13265 ft | 386 kts | 274° |
| 2026-05-07 10:41 | 61.26010 | -149.35530 | 12835 ft | 381 kts | 275° |
| 2026-05-07 10:41 | 61.26333 | -149.40975 | 12429 ft | 378 kts | 275° |
| 2026-05-07 10:41 | 61.26651 | -149.46385 | 12011 ft | 377 kts | 274° |
| 2026-05-07 10:42 | 61.26961 | -149.51738 | 11594 ft | 367 kts | 274° |
| 2026-05-07 10:42 | 61.27257 | -149.56870 | 11212 ft | 350 kts | 274° |
| 2026-05-07 10:42 | 61.27538 | -149.61792 | 10828 ft | 337 kts | 274° |
| 2026-05-07 10:42 | 61.27806 | -149.66543 | 10462 ft | 325 kts | 274° |
| 2026-05-07 10:43 | 61.28145 | -149.71113 | 10114 ft | 317 kts | 283° |
| 2026-05-07 10:43 | 61.29108 | -149.75141 | 9953 ft | 301 kts | 299° |
| 2026-05-07 10:43 | 61.30183 | -149.78683 | 9856 ft | 280 kts | 298° |
| 2026-05-07 10:43 | 61.31195 | -149.82059 | 9437 ft | 272 kts | 298° |
| 2026-05-07 10:44 | 61.32184 | -149.85415 | 8860 ft | 272 kts | 298° |
| 2026-05-07 10:44 | 61.33151 | -149.88719 | 8325 ft | 270 kts | 298° |
| 2026-05-07 10:44 | 61.34126 | -149.92060 | 8067 ft | 270 kts | 298° |
| 2026-05-07 10:44 | 61.35281 | -149.95130 | 7995 ft | 270 kts | 320° |
| 2026-05-07 10:45 | 61.36918 | -149.96806 | 8000 ft | 257 kts | 341° |
| 2026-05-07 10:45 | 61.38592 | -149.97766 | 7850 ft | 242 kts | 343° |
| 2026-05-07 10:45 | 61.40181 | -149.98801 | 7338 ft | 238 kts | 340° |
| 2026-05-07 10:45 | 61.41755 | -149.99879 | 6744 ft | 237 kts | 340° |
| 2026-05-07 10:46 | 61.43320 | -150.00946 | 6062 ft | 236 kts | 340° |
| 2026-05-07 10:46 | 61.44869 | -150.02037 | 5450 ft | 233 kts | 337° |
| 2026-05-07 10:46 | 61.46158 | -150.03935 | 4824 ft | 228 kts | 300° |
| 2026-05-07 10:46 | 61.46468 | -150.06925 | 4782 ft | 205 kts | 257° |
| 2026-05-07 10:47 | 61.45878 | -150.09606 | 4817 ft | 208 kts | 233° |
| 2026-05-07 10:47 | 61.45025 | -150.12089 | 4825 ft | 212 kts | 231° |
| 2026-05-07 10:47 | 61.43908 | -150.14027 | 4792 ft | 208 kts | 198° |
| 2026-05-07 10:47 | 61.42551 | -150.14002 | 4785 ft | 188 kts | 166° |
| 2026-05-07 10:48 | 61.41339 | -150.13342 | 4756 ft | 173 kts | 167° |
| 2026-05-07 10:48 | 61.40182 | -150.12736 | 4684 ft | 174 kts | 167° |
| 2026-05-07 10:48 | 61.39005 | -150.12096 | 4433 ft | 173 kts | 167° |
| 2026-05-07 10:48 | 61.37854 | -150.11458 | 4175 ft | 169 kts | 166° |
| 2026-05-07 10:49 | 61.36726 | -150.10829 | 3923 ft | 167 kts | 166° |
| 2026-05-07 10:49 | 61.35615 | -150.10207 | 3686 ft | 164 kts | 167° |
| 2026-05-07 10:49 | 61.34525 | -150.09597 | 3456 ft | 163 kts | 167° |
| 2026-05-07 10:49 | 61.33426 | -150.08984 | 3205 ft | 164 kts | 167° |
| 2026-05-07 10:50 | 61.32329 | -150.08370 | 2960 ft | 163 kts | 167° |
| 2026-05-07 10:50 | 61.31236 | -150.07758 | 2714 ft | 162 kts | 167° |
| 2026-05-07 10:50 | 61.30163 | -150.07157 | 2472 ft | 154 kts | 167° |
| 2026-05-07 10:50 | 61.29172 | -150.06601 | 2234 ft | 141 kts | 167° |
| 2026-05-07 10:51 | 61.28263 | -150.06092 | 2042 ft | 130 kts | 168° |
| 2026-05-07 10:51 | 61.27412 | -150.05617 | 1894 ft | 127 kts | 168° |
| 2026-05-07 10:51 | 61.26587 | -150.05156 | 1681 ft | 118 kts | 168° |
| 2026-05-07 10:51 | 61.25822 | -150.04728 | 1506 ft | 114 kts | 167° |
| 2026-05-07 10:52 | 61.25049 | -150.04285 | 1337 ft | 115 kts | 167° |
| 2026-05-07 10:52 | 61.24280 | -150.03829 | 1197 ft | 115 kts | 166° |
| 2026-05-07 10:52 | 61.23511 | -150.03366 | 1058 ft | 114 kts | 165° |
| 2026-05-07 10:52 | 61.22720 | -150.02926 | 788 ft | 124 kts | 166° |
| 2026-05-07 10:53 | 61.21875 | -150.02495 | 657 ft | 124 kts | 166° |
| 2026-05-07 10:53 | 61.21059 | -150.02014 | 486 ft | 117 kts | 166° |
| 2026-05-07 10:53 | 61.20298 | -150.01630 | 304 ft | 112 kts | 167° |
| 2026-05-07 10:53 | 61.19545 | -150.01216 | 159 ft | 111 kts | 166° |
| 2026-05-07 10:54 | 61.18883 | -150.00851 | 138 ft | 79 kts | 163° |
| 2026-05-07 10:54 | 61.18497 | -150.00622 | 129 ft | 36 kts | 165° |
| 2026-05-07 10:54 | 61.18292 | -150.00511 | 126 ft | 30 kts | 166° |
| 2026-05-07 10:54 | 61.18098 | -150.00405 | 121 ft | 28 kts | 165° |
| 2026-05-07 10:55 | 61.17926 | -150.00263 | 119 ft | 26 kts | 147° |
| 2026-05-07 10:55 | 61.17796 | -150.00027 | 126 ft | 24 kts | 131° |
| 2026-05-07 10:55 | 61.17682 | -149.99793 | 117 ft | 23 kts | 131° |
| 2026-05-07 10:55 | 61.17683 | -149.99522 | 111 ft | 7 kts | 90° |
| 2026-05-07 10:56 | 61.17649 | -149.99431 | 107 ft | 10 kts | 154° |
| 2026-05-07 10:56 | 61.17523 | -149.99336 | 105 ft | 21 kts | 161° |
| 2026-05-07 10:56 | 61.17441 | -149.99260 | 107 ft | 0 kts | 133° |
| 2026-05-07 10:57 | 61.17435 | -149.99229 | 106 ft | 4 kts | 93° |
| 2026-05-07 10:57 | 61.17441 | -149.99173 | 106 ft | 5 kts | 74° |
| 2026-05-07 10:58 | 61.17450 | -149.99123 | 105 ft | 2 kts | 69° |
| 2026-05-07 10:58 | 61.17454 | -149.99101 | 104 ft | 2 kts | 70° |
| 2026-05-07 10:58 | 61.17454 | -149.99097 | 104 ft | 0 kts | 70° |